<?xml version="1.0" encoding="UTF-8" standalone="no" ?>
<gpx xmlns="http://www.topografix.com/GPX/1/1" xmlns:xsi="http://www.w3.org/2001/XMLSchema-instance" xsi:schemaLocation="http://www.topografix.com/GPX/1/1 http://www.topografix.com/GPX/1/1/gpx.xsd" version="1.1" creator="VisuGPX - https://www.visugpx.com">
  <metadata>
    <name>Activité Randonnée TwoNav</name>
    <desc><![CDATA[2022-07-17_103644.trk]]></desc>
  </metadata>
  <trk>
    <name><![CDATA[Activité Randonnée TwoNav_1]]></name>
    <trkseg>
      <trkpt lat="48.5289" lon="6.27351">
        <ele>238.7</ele>
        <time>2022-07-17T08:36:44Z</time>
      </trkpt>
      <trkpt lat="48.52886" lon="6.27349">
        <ele>238.7</ele>
        <time>2022-07-17T08:36:45Z</time>
      </trkpt>
      <trkpt lat="48.52883" lon="6.27347">
        <ele>238.6</ele>
        <time>2022-07-17T08:36:49Z</time>
      </trkpt>
      <trkpt lat="48.52879" lon="6.27346">
        <ele>238.6</ele>
        <time>2022-07-17T08:36:56Z</time>
      </trkpt>
      <trkpt lat="48.52876" lon="6.27344">
        <ele>238.6</ele>
        <time>2022-07-17T08:37:05Z</time>
      </trkpt>
      <trkpt lat="48.52872" lon="6.27343">
        <ele>238.6</ele>
        <time>2022-07-17T08:37:16Z</time>
      </trkpt>
      <trkpt lat="48.52869" lon="6.27341">
        <ele>238.6</ele>
        <time>2022-07-17T08:37:16Z</time>
      </trkpt>
      <trkpt lat="48.5286" lon="6.27343">
        <ele>238.5</ele>
        <time>2022-07-17T08:37:26Z</time>
      </trkpt>
      <trkpt lat="48.52851" lon="6.27339">
        <ele>238.4</ele>
        <time>2022-07-17T08:37:39Z</time>
      </trkpt>
      <trkpt lat="48.52842" lon="6.27332">
        <ele>238.4</ele>
        <time>2022-07-17T08:37:49Z</time>
      </trkpt>
      <trkpt lat="48.52834" lon="6.27325">
        <ele>238.3</ele>
        <time>2022-07-17T08:37:57Z</time>
      </trkpt>
      <trkpt lat="48.52826" lon="6.27317">
        <ele>238.3</ele>
        <time>2022-07-17T08:38:06Z</time>
      </trkpt>
      <trkpt lat="48.52818" lon="6.27309">
        <ele>238.2</ele>
        <time>2022-07-17T08:38:17Z</time>
      </trkpt>
      <trkpt lat="48.52811" lon="6.273">
        <ele>238.2</ele>
        <time>2022-07-17T08:38:25Z</time>
      </trkpt>
      <trkpt lat="48.52804" lon="6.27292">
        <ele>238.1</ele>
        <time>2022-07-17T08:38:33Z</time>
      </trkpt>
      <trkpt lat="48.52796" lon="6.27282">
        <ele>238</ele>
        <time>2022-07-17T08:38:42Z</time>
      </trkpt>
      <trkpt lat="48.52789" lon="6.27273">
        <ele>238</ele>
        <time>2022-07-17T08:38:50Z</time>
      </trkpt>
      <trkpt lat="48.52781" lon="6.27264">
        <ele>238</ele>
        <time>2022-07-17T08:38:58Z</time>
      </trkpt>
      <trkpt lat="48.52773" lon="6.27257">
        <ele>238</ele>
        <time>2022-07-17T08:39:06Z</time>
      </trkpt>
      <trkpt lat="48.52766" lon="6.27248">
        <ele>238</ele>
        <time>2022-07-17T08:39:15Z</time>
      </trkpt>
      <trkpt lat="48.52759" lon="6.27239">
        <ele>238</ele>
        <time>2022-07-17T08:39:25Z</time>
      </trkpt>
      <trkpt lat="48.5275" lon="6.27233">
        <ele>238</ele>
        <time>2022-07-17T08:39:34Z</time>
      </trkpt>
      <trkpt lat="48.5274" lon="6.27231">
        <ele>237.8</ele>
        <time>2022-07-17T08:39:43Z</time>
      </trkpt>
      <trkpt lat="48.52731" lon="6.27232">
        <ele>237.6</ele>
        <time>2022-07-17T08:39:52Z</time>
      </trkpt>
      <trkpt lat="48.52723" lon="6.2724">
        <ele>237.3</ele>
        <time>2022-07-17T08:40:01Z</time>
      </trkpt>
      <trkpt lat="48.52716" lon="6.27248">
        <ele>237.2</ele>
        <time>2022-07-17T08:40:09Z</time>
      </trkpt>
      <trkpt lat="48.52708" lon="6.27258">
        <ele>237.1</ele>
        <time>2022-07-17T08:40:18Z</time>
      </trkpt>
      <trkpt lat="48.527" lon="6.27266">
        <ele>237.1</ele>
        <time>2022-07-17T08:40:26Z</time>
      </trkpt>
      <trkpt lat="48.52692" lon="6.27274">
        <ele>237.1</ele>
        <time>2022-07-17T08:40:34Z</time>
      </trkpt>
      <trkpt lat="48.52684" lon="6.27282">
        <ele>237</ele>
        <time>2022-07-17T08:40:42Z</time>
      </trkpt>
      <trkpt lat="48.52676" lon="6.2729">
        <ele>237</ele>
        <time>2022-07-17T08:40:50Z</time>
      </trkpt>
      <trkpt lat="48.52668" lon="6.27298">
        <ele>236.8</ele>
        <time>2022-07-17T08:40:58Z</time>
      </trkpt>
      <trkpt lat="48.52661" lon="6.27306">
        <ele>236.7</ele>
        <time>2022-07-17T08:41:06Z</time>
      </trkpt>
      <trkpt lat="48.52653" lon="6.27314">
        <ele>236.6</ele>
        <time>2022-07-17T08:41:14Z</time>
      </trkpt>
      <trkpt lat="48.52646" lon="6.27322">
        <ele>236.6</ele>
        <time>2022-07-17T08:41:22Z</time>
      </trkpt>
      <trkpt lat="48.52638" lon="6.2733">
        <ele>236.6</ele>
        <time>2022-07-17T08:41:30Z</time>
      </trkpt>
      <trkpt lat="48.5263" lon="6.27338">
        <ele>236.6</ele>
        <time>2022-07-17T08:41:38Z</time>
      </trkpt>
      <trkpt lat="48.52622" lon="6.27346">
        <ele>236.5</ele>
        <time>2022-07-17T08:41:49Z</time>
      </trkpt>
      <trkpt lat="48.52615" lon="6.27354">
        <ele>236.5</ele>
        <time>2022-07-17T08:41:57Z</time>
      </trkpt>
      <trkpt lat="48.52607" lon="6.27363">
        <ele>236.4</ele>
        <time>2022-07-17T08:42:05Z</time>
      </trkpt>
      <trkpt lat="48.526" lon="6.27372">
        <ele>236.4</ele>
        <time>2022-07-17T08:42:14Z</time>
      </trkpt>
      <trkpt lat="48.52592" lon="6.27381">
        <ele>236.4</ele>
        <time>2022-07-17T08:42:22Z</time>
      </trkpt>
      <trkpt lat="48.52585" lon="6.27389">
        <ele>236.3</ele>
        <time>2022-07-17T08:42:30Z</time>
      </trkpt>
      <trkpt lat="48.52578" lon="6.27398">
        <ele>236.3</ele>
        <time>2022-07-17T08:42:38Z</time>
      </trkpt>
      <trkpt lat="48.5257" lon="6.27406">
        <ele>236.3</ele>
        <time>2022-07-17T08:42:46Z</time>
      </trkpt>
      <trkpt lat="48.52562" lon="6.27415">
        <ele>236.2</ele>
        <time>2022-07-17T08:42:54Z</time>
      </trkpt>
      <trkpt lat="48.52554" lon="6.27424">
        <ele>236.1</ele>
        <time>2022-07-17T08:43:02Z</time>
      </trkpt>
      <trkpt lat="48.52547" lon="6.27433">
        <ele>236</ele>
        <time>2022-07-17T08:43:10Z</time>
      </trkpt>
      <trkpt lat="48.5254" lon="6.27443">
        <ele>236</ele>
        <time>2022-07-17T08:43:19Z</time>
      </trkpt>
      <trkpt lat="48.52533" lon="6.27452">
        <ele>235.9</ele>
        <time>2022-07-17T08:43:28Z</time>
      </trkpt>
      <trkpt lat="48.52528" lon="6.27464">
        <ele>235.9</ele>
        <time>2022-07-17T08:43:37Z</time>
      </trkpt>
      <trkpt lat="48.52529" lon="6.27479">
        <ele>235.9</ele>
        <time>2022-07-17T08:43:46Z</time>
      </trkpt>
      <trkpt lat="48.52534" lon="6.27492">
        <ele>235.8</ele>
        <time>2022-07-17T08:43:55Z</time>
      </trkpt>
      <trkpt lat="48.5254" lon="6.27504">
        <ele>235.8</ele>
        <time>2022-07-17T08:44:03Z</time>
      </trkpt>
      <trkpt lat="48.52545" lon="6.27516">
        <ele>235.6</ele>
        <time>2022-07-17T08:44:10Z</time>
      </trkpt>
      <trkpt lat="48.5255" lon="6.27528">
        <ele>235.5</ele>
        <time>2022-07-17T08:44:18Z</time>
      </trkpt>
      <trkpt lat="48.52556" lon="6.27541">
        <ele>235.5</ele>
        <time>2022-07-17T08:44:26Z</time>
      </trkpt>
      <trkpt lat="48.52561" lon="6.27552">
        <ele>235.4</ele>
        <time>2022-07-17T08:44:34Z</time>
      </trkpt>
      <trkpt lat="48.52565" lon="6.27564">
        <ele>235.4</ele>
        <time>2022-07-17T08:44:42Z</time>
      </trkpt>
      <trkpt lat="48.52569" lon="6.27578">
        <ele>235.3</ele>
        <time>2022-07-17T08:44:50Z</time>
      </trkpt>
      <trkpt lat="48.5257" lon="6.27592">
        <ele>235.3</ele>
        <time>2022-07-17T08:44:58Z</time>
      </trkpt>
      <trkpt lat="48.52567" lon="6.27606">
        <ele>235.3</ele>
        <time>2022-07-17T08:45:07Z</time>
      </trkpt>
      <trkpt lat="48.52563" lon="6.27619">
        <ele>235.2</ele>
        <time>2022-07-17T08:45:17Z</time>
      </trkpt>
      <trkpt lat="48.52559" lon="6.27632">
        <ele>235.2</ele>
        <time>2022-07-17T08:45:25Z</time>
      </trkpt>
      <trkpt lat="48.52554" lon="6.27645">
        <ele>235.2</ele>
        <time>2022-07-17T08:45:34Z</time>
      </trkpt>
      <trkpt lat="48.52548" lon="6.27656">
        <ele>235.1</ele>
        <time>2022-07-17T08:45:41Z</time>
      </trkpt>
      <trkpt lat="48.52543" lon="6.27668">
        <ele>235.1</ele>
        <time>2022-07-17T08:45:48Z</time>
      </trkpt>
      <trkpt lat="48.52537" lon="6.27679">
        <ele>235.1</ele>
        <time>2022-07-17T08:45:55Z</time>
      </trkpt>
      <trkpt lat="48.52531" lon="6.2769">
        <ele>235.1</ele>
        <time>2022-07-17T08:46:02Z</time>
      </trkpt>
      <trkpt lat="48.52525" lon="6.27702">
        <ele>235</ele>
        <time>2022-07-17T08:46:09Z</time>
      </trkpt>
      <trkpt lat="48.5252" lon="6.27714">
        <ele>235</ele>
        <time>2022-07-17T08:46:16Z</time>
      </trkpt>
      <trkpt lat="48.52514" lon="6.27726">
        <ele>235</ele>
        <time>2022-07-17T08:46:24Z</time>
      </trkpt>
      <trkpt lat="48.52508" lon="6.27738">
        <ele>235</ele>
        <time>2022-07-17T08:46:32Z</time>
      </trkpt>
      <trkpt lat="48.52501" lon="6.27749">
        <ele>235</ele>
        <time>2022-07-17T08:46:40Z</time>
      </trkpt>
      <trkpt lat="48.52497" lon="6.27762">
        <ele>235</ele>
        <time>2022-07-17T08:46:48Z</time>
      </trkpt>
      <trkpt lat="48.52492" lon="6.27775">
        <ele>235</ele>
        <time>2022-07-17T08:46:56Z</time>
      </trkpt>
      <trkpt lat="48.52487" lon="6.27787">
        <ele>235</ele>
        <time>2022-07-17T08:47:04Z</time>
      </trkpt>
      <trkpt lat="48.52481" lon="6.278">
        <ele>235</ele>
        <time>2022-07-17T08:47:12Z</time>
      </trkpt>
      <trkpt lat="48.52476" lon="6.27812">
        <ele>235</ele>
        <time>2022-07-17T08:47:19Z</time>
      </trkpt>
      <trkpt lat="48.5247" lon="6.27823">
        <ele>235</ele>
        <time>2022-07-17T08:47:26Z</time>
      </trkpt>
      <trkpt lat="48.52464" lon="6.27835">
        <ele>235.1</ele>
        <time>2022-07-17T08:47:33Z</time>
      </trkpt>
      <trkpt lat="48.52459" lon="6.27846">
        <ele>235.1</ele>
        <time>2022-07-17T08:47:40Z</time>
      </trkpt>
      <trkpt lat="48.52452" lon="6.27857">
        <ele>235.1</ele>
        <time>2022-07-17T08:47:47Z</time>
      </trkpt>
      <trkpt lat="48.52446" lon="6.27868">
        <ele>235</ele>
        <time>2022-07-17T08:47:54Z</time>
      </trkpt>
      <trkpt lat="48.5244" lon="6.27878">
        <ele>235</ele>
        <time>2022-07-17T08:48:01Z</time>
      </trkpt>
      <trkpt lat="48.52434" lon="6.2789">
        <ele>235</ele>
        <time>2022-07-17T08:48:08Z</time>
      </trkpt>
      <trkpt lat="48.52428" lon="6.27901">
        <ele>235</ele>
        <time>2022-07-17T08:48:16Z</time>
      </trkpt>
      <trkpt lat="48.52422" lon="6.27913">
        <ele>235</ele>
        <time>2022-07-17T08:48:24Z</time>
      </trkpt>
      <trkpt lat="48.52415" lon="6.27923">
        <ele>235</ele>
        <time>2022-07-17T08:48:31Z</time>
      </trkpt>
      <trkpt lat="48.52409" lon="6.27934">
        <ele>235</ele>
        <time>2022-07-17T08:48:39Z</time>
      </trkpt>
      <trkpt lat="48.52402" lon="6.27944">
        <ele>235</ele>
        <time>2022-07-17T08:48:46Z</time>
      </trkpt>
      <trkpt lat="48.52396" lon="6.27956">
        <ele>235</ele>
        <time>2022-07-17T08:48:54Z</time>
      </trkpt>
      <trkpt lat="48.5239" lon="6.27966">
        <ele>235</ele>
        <time>2022-07-17T08:49:01Z</time>
      </trkpt>
      <trkpt lat="48.52383" lon="6.27977">
        <ele>235</ele>
        <time>2022-07-17T08:49:08Z</time>
      </trkpt>
      <trkpt lat="48.52376" lon="6.27988">
        <ele>234.9</ele>
        <time>2022-07-17T08:49:15Z</time>
      </trkpt>
      <trkpt lat="48.5237" lon="6.27999">
        <ele>234.9</ele>
        <time>2022-07-17T08:49:22Z</time>
      </trkpt>
      <trkpt lat="48.52365" lon="6.2801">
        <ele>234.9</ele>
        <time>2022-07-17T08:49:29Z</time>
      </trkpt>
      <trkpt lat="48.52358" lon="6.2802">
        <ele>234.8</ele>
        <time>2022-07-17T08:49:36Z</time>
      </trkpt>
      <trkpt lat="48.52351" lon="6.2803">
        <ele>234.8</ele>
        <time>2022-07-17T08:49:43Z</time>
      </trkpt>
      <trkpt lat="48.52345" lon="6.28041">
        <ele>234.9</ele>
        <time>2022-07-17T08:49:50Z</time>
      </trkpt>
      <trkpt lat="48.52339" lon="6.28052">
        <ele>234.9</ele>
        <time>2022-07-17T08:49:57Z</time>
      </trkpt>
      <trkpt lat="48.52332" lon="6.28062">
        <ele>234.8</ele>
        <time>2022-07-17T08:50:04Z</time>
      </trkpt>
      <trkpt lat="48.52326" lon="6.28073">
        <ele>234.8</ele>
        <time>2022-07-17T08:50:11Z</time>
      </trkpt>
      <trkpt lat="48.5232" lon="6.28083">
        <ele>234.8</ele>
        <time>2022-07-17T08:50:19Z</time>
      </trkpt>
      <trkpt lat="48.52314" lon="6.28093">
        <ele>234.8</ele>
        <time>2022-07-17T08:50:26Z</time>
      </trkpt>
      <trkpt lat="48.52307" lon="6.28104">
        <ele>234.8</ele>
        <time>2022-07-17T08:50:33Z</time>
      </trkpt>
      <trkpt lat="48.52301" lon="6.28114">
        <ele>234.8</ele>
        <time>2022-07-17T08:50:40Z</time>
      </trkpt>
      <trkpt lat="48.52295" lon="6.28126">
        <ele>234.8</ele>
        <time>2022-07-17T08:50:48Z</time>
      </trkpt>
      <trkpt lat="48.52288" lon="6.28136">
        <ele>234.9</ele>
        <time>2022-07-17T08:50:55Z</time>
      </trkpt>
      <trkpt lat="48.52283" lon="6.28147">
        <ele>234.9</ele>
        <time>2022-07-17T08:51:02Z</time>
      </trkpt>
      <trkpt lat="48.52276" lon="6.28158">
        <ele>234.8</ele>
        <time>2022-07-17T08:51:10Z</time>
      </trkpt>
      <trkpt lat="48.5227" lon="6.2817">
        <ele>234.8</ele>
        <time>2022-07-17T08:51:18Z</time>
      </trkpt>
      <trkpt lat="48.52263" lon="6.2818">
        <ele>234.8</ele>
        <time>2022-07-17T08:51:25Z</time>
      </trkpt>
      <trkpt lat="48.52257" lon="6.28191">
        <ele>234.8</ele>
        <time>2022-07-17T08:51:32Z</time>
      </trkpt>
      <trkpt lat="48.5225" lon="6.28201">
        <ele>234.8</ele>
        <time>2022-07-17T08:51:39Z</time>
      </trkpt>
      <trkpt lat="48.52244" lon="6.28211">
        <ele>234.8</ele>
        <time>2022-07-17T08:51:46Z</time>
      </trkpt>
      <trkpt lat="48.52237" lon="6.28221">
        <ele>234.8</ele>
        <time>2022-07-17T08:51:53Z</time>
      </trkpt>
      <trkpt lat="48.5223" lon="6.28232">
        <ele>234.8</ele>
        <time>2022-07-17T08:52:00Z</time>
      </trkpt>
      <trkpt lat="48.52224" lon="6.28243">
        <ele>234.9</ele>
        <time>2022-07-17T08:52:07Z</time>
      </trkpt>
      <trkpt lat="48.52218" lon="6.28254">
        <ele>234.9</ele>
        <time>2022-07-17T08:52:14Z</time>
      </trkpt>
      <trkpt lat="48.52213" lon="6.28264">
        <ele>234.9</ele>
        <time>2022-07-17T08:52:21Z</time>
      </trkpt>
      <trkpt lat="48.52206" lon="6.28276">
        <ele>234.9</ele>
        <time>2022-07-17T08:52:29Z</time>
      </trkpt>
      <trkpt lat="48.52199" lon="6.28286">
        <ele>234.9</ele>
        <time>2022-07-17T08:52:37Z</time>
      </trkpt>
      <trkpt lat="48.52192" lon="6.28296">
        <ele>234.9</ele>
        <time>2022-07-17T08:52:45Z</time>
      </trkpt>
      <trkpt lat="48.52186" lon="6.28306">
        <ele>234.9</ele>
        <time>2022-07-17T08:52:53Z</time>
      </trkpt>
      <trkpt lat="48.52179" lon="6.28315">
        <ele>234.9</ele>
        <time>2022-07-17T08:53:01Z</time>
      </trkpt>
      <trkpt lat="48.52171" lon="6.28324">
        <ele>234.9</ele>
        <time>2022-07-17T08:53:09Z</time>
      </trkpt>
      <trkpt lat="48.52163" lon="6.28334">
        <ele>234.9</ele>
        <time>2022-07-17T08:53:17Z</time>
      </trkpt>
      <trkpt lat="48.52156" lon="6.28342">
        <ele>234.9</ele>
        <time>2022-07-17T08:53:24Z</time>
      </trkpt>
      <trkpt lat="48.52147" lon="6.2835">
        <ele>234.9</ele>
        <time>2022-07-17T08:53:31Z</time>
      </trkpt>
      <trkpt lat="48.52139" lon="6.28357">
        <ele>235</ele>
        <time>2022-07-17T08:53:38Z</time>
      </trkpt>
      <trkpt lat="48.52131" lon="6.28363">
        <ele>235</ele>
        <time>2022-07-17T08:53:45Z</time>
      </trkpt>
      <trkpt lat="48.52123" lon="6.28371">
        <ele>235</ele>
        <time>2022-07-17T08:53:52Z</time>
      </trkpt>
      <trkpt lat="48.52116" lon="6.28378">
        <ele>235</ele>
        <time>2022-07-17T08:53:59Z</time>
      </trkpt>
      <trkpt lat="48.52108" lon="6.28386">
        <ele>235.1</ele>
        <time>2022-07-17T08:54:06Z</time>
      </trkpt>
      <trkpt lat="48.52099" lon="6.28394">
        <ele>235.1</ele>
        <time>2022-07-17T08:54:13Z</time>
      </trkpt>
      <trkpt lat="48.52092" lon="6.28402">
        <ele>235.1</ele>
        <time>2022-07-17T08:54:20Z</time>
      </trkpt>
      <trkpt lat="48.52084" lon="6.28412">
        <ele>235.1</ele>
        <time>2022-07-17T08:54:28Z</time>
      </trkpt>
      <trkpt lat="48.52076" lon="6.28421">
        <ele>235.1</ele>
        <time>2022-07-17T08:54:36Z</time>
      </trkpt>
      <trkpt lat="48.52068" lon="6.28429">
        <ele>235</ele>
        <time>2022-07-17T08:54:44Z</time>
      </trkpt>
      <trkpt lat="48.5206" lon="6.28437">
        <ele>234.9</ele>
        <time>2022-07-17T08:54:51Z</time>
      </trkpt>
      <trkpt lat="48.52051" lon="6.28443">
        <ele>234.8</ele>
        <time>2022-07-17T08:54:59Z</time>
      </trkpt>
      <trkpt lat="48.52042" lon="6.28448">
        <ele>234.9</ele>
        <time>2022-07-17T08:55:07Z</time>
      </trkpt>
      <trkpt lat="48.52035" lon="6.28453">
        <ele>234.9</ele>
        <time>2022-07-17T08:55:15Z</time>
      </trkpt>
      <trkpt lat="48.52035" lon="6.28453">
        <ele>234.9</ele>
        <time>2022-07-17T08:55:16Z</time>
      </trkpt>
      <trkpt lat="48.52035" lon="6.28453">
        <ele>234.9</ele>
        <time>2022-07-17T08:55:18Z</time>
      </trkpt>
      <trkpt lat="48.52035" lon="6.28452">
        <ele>234.9</ele>
        <time>2022-07-17T08:55:19Z</time>
      </trkpt>
      <trkpt lat="48.52035" lon="6.28452">
        <ele>234.9</ele>
        <time>2022-07-17T08:55:22Z</time>
      </trkpt>
      <trkpt lat="48.52034" lon="6.28452">
        <ele>234.9</ele>
        <time>2022-07-17T08:55:29Z</time>
      </trkpt>
      <trkpt lat="48.52034" lon="6.28452">
        <ele>234.9</ele>
        <time>2022-07-17T08:55:32Z</time>
      </trkpt>
      <trkpt lat="48.52034" lon="6.28451">
        <ele>234.9</ele>
        <time>2022-07-17T08:55:53Z</time>
      </trkpt>
      <trkpt lat="48.52034" lon="6.28451">
        <ele>234.9</ele>
        <time>2022-07-17T08:55:55Z</time>
      </trkpt>
      <trkpt lat="48.52034" lon="6.28451">
        <ele>235</ele>
        <time>2022-07-17T08:55:58Z</time>
      </trkpt>
      <trkpt lat="48.52034" lon="6.28452">
        <ele>235</ele>
        <time>2022-07-17T08:56:00Z</time>
      </trkpt>
      <trkpt lat="48.52034" lon="6.28451">
        <ele>235</ele>
        <time>2022-07-17T08:56:07Z</time>
      </trkpt>
      <trkpt lat="48.52034" lon="6.28451">
        <ele>235</ele>
        <time>2022-07-17T08:56:10Z</time>
      </trkpt>
      <trkpt lat="48.52033" lon="6.2845">
        <ele>235</ele>
        <time>2022-07-17T08:56:32Z</time>
      </trkpt>
      <trkpt lat="48.52032" lon="6.28447">
        <ele>235</ele>
        <time>2022-07-17T08:56:39Z</time>
      </trkpt>
      <trkpt lat="48.52032" lon="6.28447">
        <ele>235</ele>
        <time>2022-07-17T08:56:41Z</time>
      </trkpt>
      <trkpt lat="48.52032" lon="6.28448">
        <ele>235</ele>
        <time>2022-07-17T08:56:42Z</time>
      </trkpt>
      <trkpt lat="48.52032" lon="6.28447">
        <ele>235</ele>
        <time>2022-07-17T08:58:02Z</time>
      </trkpt>
      <trkpt lat="48.52032" lon="6.28447">
        <ele>235</ele>
        <time>2022-07-17T08:58:03Z</time>
      </trkpt>
      <trkpt lat="48.52032" lon="6.28448">
        <ele>235</ele>
        <time>2022-07-17T08:58:29Z</time>
      </trkpt>
      <trkpt lat="48.52032" lon="6.28448">
        <ele>235</ele>
        <time>2022-07-17T08:58:32Z</time>
      </trkpt>
      <trkpt lat="48.52032" lon="6.28448">
        <ele>235</ele>
        <time>2022-07-17T08:58:43Z</time>
      </trkpt>
      <trkpt lat="48.52032" lon="6.28448">
        <ele>235</ele>
        <time>2022-07-17T08:58:44Z</time>
      </trkpt>
      <trkpt lat="48.52032" lon="6.28448">
        <ele>235</ele>
        <time>2022-07-17T08:58:47Z</time>
      </trkpt>
      <trkpt lat="48.52032" lon="6.28448">
        <ele>235</ele>
        <time>2022-07-17T08:58:48Z</time>
      </trkpt>
      <trkpt lat="48.52032" lon="6.28448">
        <ele>235</ele>
        <time>2022-07-17T08:58:49Z</time>
      </trkpt>
      <trkpt lat="48.52032" lon="6.28449">
        <ele>235</ele>
        <time>2022-07-17T08:58:50Z</time>
      </trkpt>
      <trkpt lat="48.52032" lon="6.28449">
        <ele>235</ele>
        <time>2022-07-17T08:58:51Z</time>
      </trkpt>
      <trkpt lat="48.52032" lon="6.28448">
        <ele>235</ele>
        <time>2022-07-17T08:58:52Z</time>
      </trkpt>
      <trkpt lat="48.52032" lon="6.28448">
        <ele>235</ele>
        <time>2022-07-17T08:58:53Z</time>
      </trkpt>
      <trkpt lat="48.52032" lon="6.28449">
        <ele>235</ele>
        <time>2022-07-17T08:58:54Z</time>
      </trkpt>
      <trkpt lat="48.52032" lon="6.28449">
        <ele>235</ele>
        <time>2022-07-17T08:58:55Z</time>
      </trkpt>
      <trkpt lat="48.52032" lon="6.28449">
        <ele>235</ele>
        <time>2022-07-17T08:58:57Z</time>
      </trkpt>
      <trkpt lat="48.52032" lon="6.28449">
        <ele>235</ele>
        <time>2022-07-17T08:59:04Z</time>
      </trkpt>
      <trkpt lat="48.52032" lon="6.28449">
        <ele>235</ele>
        <time>2022-07-17T08:59:05Z</time>
      </trkpt>
      <trkpt lat="48.52032" lon="6.28449">
        <ele>235</ele>
        <time>2022-07-17T08:59:18Z</time>
      </trkpt>
      <trkpt lat="48.52032" lon="6.28449">
        <ele>235</ele>
        <time>2022-07-17T08:59:20Z</time>
      </trkpt>
      <trkpt lat="48.52033" lon="6.28449">
        <ele>235</ele>
        <time>2022-07-17T09:00:19Z</time>
      </trkpt>
      <trkpt lat="48.52033" lon="6.28449">
        <ele>235</ele>
        <time>2022-07-17T09:00:21Z</time>
      </trkpt>
      <trkpt lat="48.52033" lon="6.28449">
        <ele>235</ele>
        <time>2022-07-17T09:00:25Z</time>
      </trkpt>
      <trkpt lat="48.52034" lon="6.2845">
        <ele>235</ele>
        <time>2022-07-17T09:00:29Z</time>
      </trkpt>
      <trkpt lat="48.52034" lon="6.2845">
        <ele>235</ele>
        <time>2022-07-17T09:00:30Z</time>
      </trkpt>
      <trkpt lat="48.52034" lon="6.2845">
        <ele>235</ele>
        <time>2022-07-17T09:00:32Z</time>
      </trkpt>
      <trkpt lat="48.52034" lon="6.28451">
        <ele>235</ele>
        <time>2022-07-17T09:00:44Z</time>
      </trkpt>
      <trkpt lat="48.52032" lon="6.28454">
        <ele>235</ele>
        <time>2022-07-17T09:00:50Z</time>
      </trkpt>
      <trkpt lat="48.52032" lon="6.28454">
        <ele>235</ele>
        <time>2022-07-17T09:00:54Z</time>
      </trkpt>
      <trkpt lat="48.52024" lon="6.2846">
        <ele>235.1</ele>
        <time>2022-07-17T09:01:05Z</time>
      </trkpt>
      <trkpt lat="48.52015" lon="6.28464">
        <ele>235.1</ele>
        <time>2022-07-17T09:01:15Z</time>
      </trkpt>
      <trkpt lat="48.52005" lon="6.28465">
        <ele>235.2</ele>
        <time>2022-07-17T09:01:25Z</time>
      </trkpt>
      <trkpt lat="48.52001" lon="6.28466">
        <ele>235.1</ele>
        <time>2022-07-17T09:01:36Z</time>
      </trkpt>
      <trkpt lat="48.52001" lon="6.28466">
        <ele>235.1</ele>
        <time>2022-07-17T09:01:37Z</time>
      </trkpt>
      <trkpt lat="48.51993" lon="6.28473">
        <ele>235.3</ele>
        <time>2022-07-17T09:01:51Z</time>
      </trkpt>
      <trkpt lat="48.51985" lon="6.2848">
        <ele>235.3</ele>
        <time>2022-07-17T09:01:59Z</time>
      </trkpt>
      <trkpt lat="48.51976" lon="6.28487">
        <ele>235.4</ele>
        <time>2022-07-17T09:02:08Z</time>
      </trkpt>
      <trkpt lat="48.51967" lon="6.28491">
        <ele>235.7</ele>
        <time>2022-07-17T09:02:17Z</time>
      </trkpt>
      <trkpt lat="48.51958" lon="6.28494">
        <ele>235.6</ele>
        <time>2022-07-17T09:02:25Z</time>
      </trkpt>
      <trkpt lat="48.51948" lon="6.28497">
        <ele>235.3</ele>
        <time>2022-07-17T09:02:34Z</time>
      </trkpt>
      <trkpt lat="48.5194" lon="6.28501">
        <ele>234.9</ele>
        <time>2022-07-17T09:02:54Z</time>
      </trkpt>
      <trkpt lat="48.5194" lon="6.28501">
        <ele>234.9</ele>
        <time>2022-07-17T09:02:58Z</time>
      </trkpt>
      <trkpt lat="48.51939" lon="6.28505">
        <ele>235.2</ele>
        <time>2022-07-17T09:03:07Z</time>
      </trkpt>
      <trkpt lat="48.51939" lon="6.28505">
        <ele>235</ele>
        <time>2022-07-17T09:03:09Z</time>
      </trkpt>
      <trkpt lat="48.51939" lon="6.28505">
        <ele>235</ele>
        <time>2022-07-17T09:03:10Z</time>
      </trkpt>
      <trkpt lat="48.51939" lon="6.28506">
        <ele>235</ele>
        <time>2022-07-17T09:03:19Z</time>
      </trkpt>
      <trkpt lat="48.51937" lon="6.28509">
        <ele>235.3</ele>
        <time>2022-07-17T09:03:28Z</time>
      </trkpt>
      <trkpt lat="48.51936" lon="6.28509">
        <ele>235.3</ele>
        <time>2022-07-17T09:03:30Z</time>
      </trkpt>
      <trkpt lat="48.5193" lon="6.28519">
        <ele>235.8</ele>
        <time>2022-07-17T09:03:52Z</time>
      </trkpt>
      <trkpt lat="48.51929" lon="6.2852">
        <ele>235.8</ele>
        <time>2022-07-17T09:03:58Z</time>
      </trkpt>
      <trkpt lat="48.51929" lon="6.2852">
        <ele>235.8</ele>
        <time>2022-07-17T09:04:01Z</time>
      </trkpt>
      <trkpt lat="48.51927" lon="6.28524">
        <ele>236.1</ele>
        <time>2022-07-17T09:04:11Z</time>
      </trkpt>
      <trkpt lat="48.51926" lon="6.28524">
        <ele>236.1</ele>
        <time>2022-07-17T09:04:13Z</time>
      </trkpt>
      <trkpt lat="48.51918" lon="6.2853">
        <ele>236.3</ele>
        <time>2022-07-17T09:04:26Z</time>
      </trkpt>
      <trkpt lat="48.5191" lon="6.28536">
        <ele>236.1</ele>
        <time>2022-07-17T09:04:39Z</time>
      </trkpt>
      <trkpt lat="48.51901" lon="6.2854">
        <ele>235.7</ele>
        <time>2022-07-17T09:04:53Z</time>
      </trkpt>
      <trkpt lat="48.51897" lon="6.28542">
        <ele>235.7</ele>
        <time>2022-07-17T09:05:01Z</time>
      </trkpt>
      <trkpt lat="48.51897" lon="6.28542">
        <ele>235.7</ele>
        <time>2022-07-17T09:05:02Z</time>
      </trkpt>
      <trkpt lat="48.51894" lon="6.28545">
        <ele>235.4</ele>
        <time>2022-07-17T09:05:09Z</time>
      </trkpt>
      <trkpt lat="48.51894" lon="6.28545">
        <ele>235.5</ele>
        <time>2022-07-17T09:05:10Z</time>
      </trkpt>
      <trkpt lat="48.51886" lon="6.2855">
        <ele>235.7</ele>
        <time>2022-07-17T09:05:24Z</time>
      </trkpt>
      <trkpt lat="48.51877" lon="6.28553">
        <ele>236.4</ele>
        <time>2022-07-17T09:05:38Z</time>
      </trkpt>
      <trkpt lat="48.51876" lon="6.28553">
        <ele>236.7</ele>
        <time>2022-07-17T09:05:41Z</time>
      </trkpt>
      <trkpt lat="48.51876" lon="6.28553">
        <ele>236.7</ele>
        <time>2022-07-17T09:05:44Z</time>
      </trkpt>
      <trkpt lat="48.51867" lon="6.28556">
        <ele>237.3</ele>
        <time>2022-07-17T09:05:58Z</time>
      </trkpt>
      <trkpt lat="48.51858" lon="6.28562">
        <ele>237.2</ele>
        <time>2022-07-17T09:06:09Z</time>
      </trkpt>
      <trkpt lat="48.51849" lon="6.28567">
        <ele>236.7</ele>
        <time>2022-07-17T09:06:17Z</time>
      </trkpt>
      <trkpt lat="48.51841" lon="6.28573">
        <ele>235.9</ele>
        <time>2022-07-17T09:06:25Z</time>
      </trkpt>
      <trkpt lat="48.51832" lon="6.28578">
        <ele>236.2</ele>
        <time>2022-07-17T09:06:33Z</time>
      </trkpt>
      <trkpt lat="48.51823" lon="6.28583">
        <ele>236.7</ele>
        <time>2022-07-17T09:06:41Z</time>
      </trkpt>
      <trkpt lat="48.51815" lon="6.28592">
        <ele>236.7</ele>
        <time>2022-07-17T09:06:50Z</time>
      </trkpt>
      <trkpt lat="48.51807" lon="6.28599">
        <ele>235.8</ele>
        <time>2022-07-17T09:07:01Z</time>
      </trkpt>
      <trkpt lat="48.51798" lon="6.28603">
        <ele>235</ele>
        <time>2022-07-17T09:07:12Z</time>
      </trkpt>
      <trkpt lat="48.51789" lon="6.28607">
        <ele>234.5</ele>
        <time>2022-07-17T09:07:24Z</time>
      </trkpt>
      <trkpt lat="48.5178" lon="6.2861">
        <ele>234.8</ele>
        <time>2022-07-17T09:07:34Z</time>
      </trkpt>
      <trkpt lat="48.51771" lon="6.28612">
        <ele>235.4</ele>
        <time>2022-07-17T09:07:43Z</time>
      </trkpt>
      <trkpt lat="48.51762" lon="6.28612">
        <ele>235.8</ele>
        <time>2022-07-17T09:07:54Z</time>
      </trkpt>
      <trkpt lat="48.51753" lon="6.28614">
        <ele>235.9</ele>
        <time>2022-07-17T09:08:03Z</time>
      </trkpt>
      <trkpt lat="48.51744" lon="6.2862">
        <ele>235.7</ele>
        <time>2022-07-17T09:08:15Z</time>
      </trkpt>
      <trkpt lat="48.51735" lon="6.28624">
        <ele>235.6</ele>
        <time>2022-07-17T09:08:26Z</time>
      </trkpt>
      <trkpt lat="48.51726" lon="6.28628">
        <ele>235.3</ele>
        <time>2022-07-17T09:08:36Z</time>
      </trkpt>
      <trkpt lat="48.51716" lon="6.28632">
        <ele>234.9</ele>
        <time>2022-07-17T09:08:46Z</time>
      </trkpt>
      <trkpt lat="48.51708" lon="6.28634">
        <ele>234.6</ele>
        <time>2022-07-17T09:08:58Z</time>
      </trkpt>
      <trkpt lat="48.51707" lon="6.28634">
        <ele>234.6</ele>
        <time>2022-07-17T09:09:00Z</time>
      </trkpt>
      <trkpt lat="48.51698" lon="6.28636">
        <ele>235</ele>
        <time>2022-07-17T09:09:12Z</time>
      </trkpt>
      <trkpt lat="48.51689" lon="6.28635">
        <ele>235.5</ele>
        <time>2022-07-17T09:09:21Z</time>
      </trkpt>
      <trkpt lat="48.5168" lon="6.28636">
        <ele>235.3</ele>
        <time>2022-07-17T09:09:31Z</time>
      </trkpt>
      <trkpt lat="48.5167" lon="6.28636">
        <ele>234.6</ele>
        <time>2022-07-17T09:09:40Z</time>
      </trkpt>
      <trkpt lat="48.51661" lon="6.2864">
        <ele>233.5</ele>
        <time>2022-07-17T09:09:49Z</time>
      </trkpt>
      <trkpt lat="48.51652" lon="6.28643">
        <ele>233</ele>
        <time>2022-07-17T09:10:01Z</time>
      </trkpt>
      <trkpt lat="48.51644" lon="6.28649">
        <ele>233.6</ele>
        <time>2022-07-17T09:10:10Z</time>
      </trkpt>
      <trkpt lat="48.51634" lon="6.2865">
        <ele>234.8</ele>
        <time>2022-07-17T09:10:19Z</time>
      </trkpt>
      <trkpt lat="48.51624" lon="6.28651">
        <ele>235.4</ele>
        <time>2022-07-17T09:10:28Z</time>
      </trkpt>
      <trkpt lat="48.51615" lon="6.28654">
        <ele>235.7</ele>
        <time>2022-07-17T09:10:37Z</time>
      </trkpt>
      <trkpt lat="48.51606" lon="6.28659">
        <ele>235.1</ele>
        <time>2022-07-17T09:10:46Z</time>
      </trkpt>
      <trkpt lat="48.51596" lon="6.28662">
        <ele>235</ele>
        <time>2022-07-17T09:10:55Z</time>
      </trkpt>
      <trkpt lat="48.51587" lon="6.28664">
        <ele>234.5</ele>
        <time>2022-07-17T09:11:04Z</time>
      </trkpt>
      <trkpt lat="48.51577" lon="6.28665">
        <ele>234.4</ele>
        <time>2022-07-17T09:11:13Z</time>
      </trkpt>
      <trkpt lat="48.51568" lon="6.28668">
        <ele>233.9</ele>
        <time>2022-07-17T09:11:22Z</time>
      </trkpt>
      <trkpt lat="48.51559" lon="6.2867">
        <ele>233.9</ele>
        <time>2022-07-17T09:11:30Z</time>
      </trkpt>
      <trkpt lat="48.5155" lon="6.28673">
        <ele>233.6</ele>
        <time>2022-07-17T09:11:38Z</time>
      </trkpt>
      <trkpt lat="48.5154" lon="6.28675">
        <ele>233.8</ele>
        <time>2022-07-17T09:11:46Z</time>
      </trkpt>
      <trkpt lat="48.51531" lon="6.28677">
        <ele>233.8</ele>
        <time>2022-07-17T09:11:54Z</time>
      </trkpt>
      <trkpt lat="48.51522" lon="6.28679">
        <ele>234.3</ele>
        <time>2022-07-17T09:12:03Z</time>
      </trkpt>
      <trkpt lat="48.51512" lon="6.28682">
        <ele>234.5</ele>
        <time>2022-07-17T09:12:11Z</time>
      </trkpt>
      <trkpt lat="48.51503" lon="6.28683">
        <ele>235</ele>
        <time>2022-07-17T09:12:19Z</time>
      </trkpt>
      <trkpt lat="48.51494" lon="6.28685">
        <ele>235.3</ele>
        <time>2022-07-17T09:12:27Z</time>
      </trkpt>
      <trkpt lat="48.51485" lon="6.28687">
        <ele>235.8</ele>
        <time>2022-07-17T09:12:36Z</time>
      </trkpt>
      <trkpt lat="48.51476" lon="6.28688">
        <ele>236.1</ele>
        <time>2022-07-17T09:12:44Z</time>
      </trkpt>
      <trkpt lat="48.51467" lon="6.28687">
        <ele>236.4</ele>
        <time>2022-07-17T09:12:54Z</time>
      </trkpt>
      <trkpt lat="48.51457" lon="6.28688">
        <ele>236.5</ele>
        <time>2022-07-17T09:13:08Z</time>
      </trkpt>
      <trkpt lat="48.51447" lon="6.28685">
        <ele>236.6</ele>
        <time>2022-07-17T09:13:17Z</time>
      </trkpt>
      <trkpt lat="48.51438" lon="6.28682">
        <ele>236.7</ele>
        <time>2022-07-17T09:13:26Z</time>
      </trkpt>
      <trkpt lat="48.51429" lon="6.28679">
        <ele>236.6</ele>
        <time>2022-07-17T09:13:37Z</time>
      </trkpt>
      <trkpt lat="48.5142" lon="6.2868">
        <ele>236.7</ele>
        <time>2022-07-17T09:13:52Z</time>
      </trkpt>
      <trkpt lat="48.51412" lon="6.28686">
        <ele>236.7</ele>
        <time>2022-07-17T09:14:08Z</time>
      </trkpt>
      <trkpt lat="48.51402" lon="6.28685">
        <ele>236.2</ele>
        <time>2022-07-17T09:14:25Z</time>
      </trkpt>
      <trkpt lat="48.51396" lon="6.28696">
        <ele>236.3</ele>
        <time>2022-07-17T09:14:53Z</time>
      </trkpt>
      <trkpt lat="48.51394" lon="6.2871">
        <ele>237.3</ele>
        <time>2022-07-17T09:15:08Z</time>
      </trkpt>
      <trkpt lat="48.51394" lon="6.28719">
        <ele>237.4</ele>
        <time>2022-07-17T09:15:15Z</time>
      </trkpt>
      <trkpt lat="48.51394" lon="6.28719">
        <ele>237.4</ele>
        <time>2022-07-17T09:15:17Z</time>
      </trkpt>
      <trkpt lat="48.51393" lon="6.28721">
        <ele>237.3</ele>
        <time>2022-07-17T09:15:21Z</time>
      </trkpt>
      <trkpt lat="48.51392" lon="6.28721">
        <ele>237.3</ele>
        <time>2022-07-17T09:15:26Z</time>
      </trkpt>
      <trkpt lat="48.51393" lon="6.28721">
        <ele>237.4</ele>
        <time>2022-07-17T09:15:28Z</time>
      </trkpt>
      <trkpt lat="48.51393" lon="6.28721">
        <ele>237.4</ele>
        <time>2022-07-17T09:15:45Z</time>
      </trkpt>
      <trkpt lat="48.51393" lon="6.28721">
        <ele>237.4</ele>
        <time>2022-07-17T09:15:46Z</time>
      </trkpt>
      <trkpt lat="48.51393" lon="6.28721">
        <ele>237.4</ele>
        <time>2022-07-17T09:15:47Z</time>
      </trkpt>
      <trkpt lat="48.51393" lon="6.28721">
        <ele>237.4</ele>
        <time>2022-07-17T09:15:48Z</time>
      </trkpt>
      <trkpt lat="48.51392" lon="6.28721">
        <ele>237.4</ele>
        <time>2022-07-17T09:15:51Z</time>
      </trkpt>
      <trkpt lat="48.51392" lon="6.28721">
        <ele>237.4</ele>
        <time>2022-07-17T09:15:52Z</time>
      </trkpt>
      <trkpt lat="48.51392" lon="6.28721">
        <ele>237.4</ele>
        <time>2022-07-17T09:16:19Z</time>
      </trkpt>
      <trkpt lat="48.51392" lon="6.28721">
        <ele>237.4</ele>
        <time>2022-07-17T09:16:20Z</time>
      </trkpt>
      <trkpt lat="48.51392" lon="6.28722">
        <ele>237.4</ele>
        <time>2022-07-17T09:16:34Z</time>
      </trkpt>
      <trkpt lat="48.51392" lon="6.28722">
        <ele>237.4</ele>
        <time>2022-07-17T09:16:35Z</time>
      </trkpt>
      <trkpt lat="48.51392" lon="6.28722">
        <ele>237.4</ele>
        <time>2022-07-17T09:16:59Z</time>
      </trkpt>
      <trkpt lat="48.51392" lon="6.28722">
        <ele>237.4</ele>
        <time>2022-07-17T09:17:00Z</time>
      </trkpt>
      <trkpt lat="48.51392" lon="6.28722">
        <ele>237.4</ele>
        <time>2022-07-17T09:17:01Z</time>
      </trkpt>
      <trkpt lat="48.51389" lon="6.28719">
        <ele>237.3</ele>
        <time>2022-07-17T09:17:06Z</time>
      </trkpt>
      <trkpt lat="48.51389" lon="6.28719">
        <ele>237.3</ele>
        <time>2022-07-17T09:17:08Z</time>
      </trkpt>
      <trkpt lat="48.5139" lon="6.28713">
        <ele>237.3</ele>
        <time>2022-07-17T09:17:18Z</time>
      </trkpt>
      <trkpt lat="48.5139" lon="6.28713">
        <ele>237.3</ele>
        <time>2022-07-17T09:17:19Z</time>
      </trkpt>
      <trkpt lat="48.5139" lon="6.28713">
        <ele>237.3</ele>
        <time>2022-07-17T09:17:20Z</time>
      </trkpt>
      <trkpt lat="48.5139" lon="6.28712">
        <ele>237.3</ele>
        <time>2022-07-17T09:17:24Z</time>
      </trkpt>
      <trkpt lat="48.51394" lon="6.28699">
        <ele>236.6</ele>
        <time>2022-07-17T09:17:40Z</time>
      </trkpt>
      <trkpt lat="48.51394" lon="6.28685">
        <ele>235.6</ele>
        <time>2022-07-17T09:17:50Z</time>
      </trkpt>
      <trkpt lat="48.51394" lon="6.28671">
        <ele>234.8</ele>
        <time>2022-07-17T09:18:03Z</time>
      </trkpt>
      <trkpt lat="48.51392" lon="6.28658">
        <ele>234.5</ele>
        <time>2022-07-17T09:18:09Z</time>
      </trkpt>
      <trkpt lat="48.51389" lon="6.28645">
        <ele>234.3</ele>
        <time>2022-07-17T09:18:16Z</time>
      </trkpt>
      <trkpt lat="48.51388" lon="6.28631">
        <ele>234.4</ele>
        <time>2022-07-17T09:18:23Z</time>
      </trkpt>
      <trkpt lat="48.51387" lon="6.28617">
        <ele>234.5</ele>
        <time>2022-07-17T09:18:30Z</time>
      </trkpt>
      <trkpt lat="48.51389" lon="6.28603">
        <ele>234.6</ele>
        <time>2022-07-17T09:18:38Z</time>
      </trkpt>
      <trkpt lat="48.51391" lon="6.28589">
        <ele>234.7</ele>
        <time>2022-07-17T09:18:46Z</time>
      </trkpt>
      <trkpt lat="48.5139" lon="6.28574">
        <ele>234.8</ele>
        <time>2022-07-17T09:18:55Z</time>
      </trkpt>
      <trkpt lat="48.51391" lon="6.2856">
        <ele>234.9</ele>
        <time>2022-07-17T09:19:02Z</time>
      </trkpt>
      <trkpt lat="48.5139" lon="6.28547">
        <ele>235</ele>
        <time>2022-07-17T09:19:09Z</time>
      </trkpt>
      <trkpt lat="48.51388" lon="6.28532">
        <ele>235.1</ele>
        <time>2022-07-17T09:19:18Z</time>
      </trkpt>
      <trkpt lat="48.51385" lon="6.28518">
        <ele>235.1</ele>
        <time>2022-07-17T09:19:27Z</time>
      </trkpt>
      <trkpt lat="48.51383" lon="6.28504">
        <ele>235.2</ele>
        <time>2022-07-17T09:19:35Z</time>
      </trkpt>
      <trkpt lat="48.51382" lon="6.28489">
        <ele>235.3</ele>
        <time>2022-07-17T09:19:43Z</time>
      </trkpt>
      <trkpt lat="48.5138" lon="6.28474">
        <ele>235.4</ele>
        <time>2022-07-17T09:19:51Z</time>
      </trkpt>
      <trkpt lat="48.5138" lon="6.2846">
        <ele>235.4</ele>
        <time>2022-07-17T09:19:59Z</time>
      </trkpt>
      <trkpt lat="48.51384" lon="6.28447">
        <ele>235.5</ele>
        <time>2022-07-17T09:20:06Z</time>
      </trkpt>
      <trkpt lat="48.51388" lon="6.28433">
        <ele>235.6</ele>
        <time>2022-07-17T09:20:14Z</time>
      </trkpt>
      <trkpt lat="48.51387" lon="6.28419">
        <ele>235.7</ele>
        <time>2022-07-17T09:20:21Z</time>
      </trkpt>
      <trkpt lat="48.51384" lon="6.28405">
        <ele>235.8</ele>
        <time>2022-07-17T09:20:29Z</time>
      </trkpt>
      <trkpt lat="48.51381" lon="6.28391">
        <ele>235.9</ele>
        <time>2022-07-17T09:20:37Z</time>
      </trkpt>
      <trkpt lat="48.51378" lon="6.28378">
        <ele>236</ele>
        <time>2022-07-17T09:20:45Z</time>
      </trkpt>
      <trkpt lat="48.51376" lon="6.28363">
        <ele>236</ele>
        <time>2022-07-17T09:20:53Z</time>
      </trkpt>
      <trkpt lat="48.51374" lon="6.2835">
        <ele>236.1</ele>
        <time>2022-07-17T09:21:00Z</time>
      </trkpt>
      <trkpt lat="48.51372" lon="6.28335">
        <ele>236.2</ele>
        <time>2022-07-17T09:21:08Z</time>
      </trkpt>
      <trkpt lat="48.51371" lon="6.2832">
        <ele>236.3</ele>
        <time>2022-07-17T09:21:16Z</time>
      </trkpt>
      <trkpt lat="48.51371" lon="6.28306">
        <ele>236.4</ele>
        <time>2022-07-17T09:21:24Z</time>
      </trkpt>
      <trkpt lat="48.5137" lon="6.28291">
        <ele>236.6</ele>
        <time>2022-07-17T09:21:32Z</time>
      </trkpt>
      <trkpt lat="48.51364" lon="6.2828">
        <ele>236.6</ele>
        <time>2022-07-17T09:21:40Z</time>
      </trkpt>
      <trkpt lat="48.51358" lon="6.28268">
        <ele>236.6</ele>
        <time>2022-07-17T09:21:48Z</time>
      </trkpt>
      <trkpt lat="48.51353" lon="6.28257">
        <ele>236.6</ele>
        <time>2022-07-17T09:21:56Z</time>
      </trkpt>
      <trkpt lat="48.51345" lon="6.28247">
        <ele>236.7</ele>
        <time>2022-07-17T09:22:04Z</time>
      </trkpt>
      <trkpt lat="48.51337" lon="6.28238">
        <ele>236.7</ele>
        <time>2022-07-17T09:22:12Z</time>
      </trkpt>
      <trkpt lat="48.51329" lon="6.2823">
        <ele>236.7</ele>
        <time>2022-07-17T09:22:20Z</time>
      </trkpt>
      <trkpt lat="48.51322" lon="6.28222">
        <ele>236.7</ele>
        <time>2022-07-17T09:22:28Z</time>
      </trkpt>
      <trkpt lat="48.51314" lon="6.28214">
        <ele>236.7</ele>
        <time>2022-07-17T09:22:36Z</time>
      </trkpt>
      <trkpt lat="48.51306" lon="6.28207">
        <ele>236.8</ele>
        <time>2022-07-17T09:22:44Z</time>
      </trkpt>
      <trkpt lat="48.51298" lon="6.282">
        <ele>236.8</ele>
        <time>2022-07-17T09:22:52Z</time>
      </trkpt>
      <trkpt lat="48.5129" lon="6.28191">
        <ele>236.8</ele>
        <time>2022-07-17T09:23:01Z</time>
      </trkpt>
      <trkpt lat="48.51282" lon="6.28183">
        <ele>236.8</ele>
        <time>2022-07-17T09:23:09Z</time>
      </trkpt>
      <trkpt lat="48.51273" lon="6.28176">
        <ele>236.8</ele>
        <time>2022-07-17T09:23:17Z</time>
      </trkpt>
      <trkpt lat="48.51265" lon="6.28169">
        <ele>236.8</ele>
        <time>2022-07-17T09:23:25Z</time>
      </trkpt>
      <trkpt lat="48.51256" lon="6.28163">
        <ele>236.8</ele>
        <time>2022-07-17T09:23:33Z</time>
      </trkpt>
      <trkpt lat="48.51247" lon="6.28158">
        <ele>236.8</ele>
        <time>2022-07-17T09:23:41Z</time>
      </trkpt>
      <trkpt lat="48.51239" lon="6.28152">
        <ele>236.8</ele>
        <time>2022-07-17T09:23:49Z</time>
      </trkpt>
      <trkpt lat="48.5123" lon="6.28146">
        <ele>236.8</ele>
        <time>2022-07-17T09:23:57Z</time>
      </trkpt>
      <trkpt lat="48.51222" lon="6.28139">
        <ele>236.8</ele>
        <time>2022-07-17T09:24:05Z</time>
      </trkpt>
      <trkpt lat="48.51213" lon="6.28133">
        <ele>236.8</ele>
        <time>2022-07-17T09:24:13Z</time>
      </trkpt>
      <trkpt lat="48.51204" lon="6.28128">
        <ele>236.8</ele>
        <time>2022-07-17T09:24:21Z</time>
      </trkpt>
      <trkpt lat="48.51194" lon="6.28124">
        <ele>236.9</ele>
        <time>2022-07-17T09:24:29Z</time>
      </trkpt>
      <trkpt lat="48.51185" lon="6.28121">
        <ele>236.9</ele>
        <time>2022-07-17T09:24:37Z</time>
      </trkpt>
      <trkpt lat="48.51175" lon="6.28119">
        <ele>236.9</ele>
        <time>2022-07-17T09:24:45Z</time>
      </trkpt>
      <trkpt lat="48.51166" lon="6.2812">
        <ele>236.9</ele>
        <time>2022-07-17T09:24:53Z</time>
      </trkpt>
      <trkpt lat="48.51156" lon="6.28121">
        <ele>236.9</ele>
        <time>2022-07-17T09:25:01Z</time>
      </trkpt>
      <trkpt lat="48.51147" lon="6.28123">
        <ele>236.9</ele>
        <time>2022-07-17T09:25:09Z</time>
      </trkpt>
      <trkpt lat="48.51138" lon="6.28124">
        <ele>236.9</ele>
        <time>2022-07-17T09:25:17Z</time>
      </trkpt>
      <trkpt lat="48.51128" lon="6.28119">
        <ele>236.9</ele>
        <time>2022-07-17T09:25:25Z</time>
      </trkpt>
      <trkpt lat="48.51119" lon="6.28116">
        <ele>236.9</ele>
        <time>2022-07-17T09:25:33Z</time>
      </trkpt>
      <trkpt lat="48.5111" lon="6.28115">
        <ele>236.9</ele>
        <time>2022-07-17T09:25:41Z</time>
      </trkpt>
      <trkpt lat="48.511" lon="6.28114">
        <ele>236.9</ele>
        <time>2022-07-17T09:25:49Z</time>
      </trkpt>
      <trkpt lat="48.51091" lon="6.28115">
        <ele>236.9</ele>
        <time>2022-07-17T09:25:57Z</time>
      </trkpt>
      <trkpt lat="48.51082" lon="6.28118">
        <ele>236.8</ele>
        <time>2022-07-17T09:26:05Z</time>
      </trkpt>
      <trkpt lat="48.51073" lon="6.28123">
        <ele>236.8</ele>
        <time>2022-07-17T09:26:13Z</time>
      </trkpt>
      <trkpt lat="48.51064" lon="6.28128">
        <ele>236.8</ele>
        <time>2022-07-17T09:26:21Z</time>
      </trkpt>
      <trkpt lat="48.51056" lon="6.28133">
        <ele>236.8</ele>
        <time>2022-07-17T09:26:29Z</time>
      </trkpt>
      <trkpt lat="48.51047" lon="6.28139">
        <ele>236.8</ele>
        <time>2022-07-17T09:26:38Z</time>
      </trkpt>
      <trkpt lat="48.51038" lon="6.28146">
        <ele>236.9</ele>
        <time>2022-07-17T09:26:46Z</time>
      </trkpt>
      <trkpt lat="48.5103" lon="6.28152">
        <ele>237</ele>
        <time>2022-07-17T09:26:54Z</time>
      </trkpt>
      <trkpt lat="48.51022" lon="6.28159">
        <ele>237.2</ele>
        <time>2022-07-17T09:27:02Z</time>
      </trkpt>
      <trkpt lat="48.51014" lon="6.28167">
        <ele>237.4</ele>
        <time>2022-07-17T09:27:10Z</time>
      </trkpt>
      <trkpt lat="48.51007" lon="6.28176">
        <ele>237.5</ele>
        <time>2022-07-17T09:27:18Z</time>
      </trkpt>
      <trkpt lat="48.51" lon="6.28186">
        <ele>237.7</ele>
        <time>2022-07-17T09:27:27Z</time>
      </trkpt>
      <trkpt lat="48.50992" lon="6.28194">
        <ele>237.8</ele>
        <time>2022-07-17T09:27:36Z</time>
      </trkpt>
      <trkpt lat="48.50984" lon="6.28202">
        <ele>237.8</ele>
        <time>2022-07-17T09:27:45Z</time>
      </trkpt>
      <trkpt lat="48.50977" lon="6.28211">
        <ele>237.8</ele>
        <time>2022-07-17T09:27:54Z</time>
      </trkpt>
      <trkpt lat="48.50973" lon="6.28224">
        <ele>237.7</ele>
        <time>2022-07-17T09:28:02Z</time>
      </trkpt>
      <trkpt lat="48.50973" lon="6.28239">
        <ele>237.6</ele>
        <time>2022-07-17T09:28:10Z</time>
      </trkpt>
      <trkpt lat="48.50973" lon="6.28248">
        <ele>237.6</ele>
        <time>2022-07-17T09:28:18Z</time>
      </trkpt>
      <trkpt lat="48.50974" lon="6.28248">
        <ele>237.6</ele>
        <time>2022-07-17T09:28:19Z</time>
      </trkpt>
      <trkpt lat="48.50973" lon="6.28249">
        <ele>237.6</ele>
        <time>2022-07-17T09:28:22Z</time>
      </trkpt>
      <trkpt lat="48.50973" lon="6.28249">
        <ele>237.6</ele>
        <time>2022-07-17T09:28:32Z</time>
      </trkpt>
      <trkpt lat="48.50973" lon="6.2825">
        <ele>237.6</ele>
        <time>2022-07-17T09:28:35Z</time>
      </trkpt>
      <trkpt lat="48.50973" lon="6.2825">
        <ele>237.6</ele>
        <time>2022-07-17T09:28:53Z</time>
      </trkpt>
      <trkpt lat="48.50973" lon="6.2825">
        <ele>237.6</ele>
        <time>2022-07-17T09:28:54Z</time>
      </trkpt>
      <trkpt lat="48.50973" lon="6.2825">
        <ele>237.6</ele>
        <time>2022-07-17T09:29:30Z</time>
      </trkpt>
      <trkpt lat="48.50973" lon="6.2825">
        <ele>237.6</ele>
        <time>2022-07-17T09:29:31Z</time>
      </trkpt>
      <trkpt lat="48.50973" lon="6.2825">
        <ele>237.6</ele>
        <time>2022-07-17T09:29:54Z</time>
      </trkpt>
      <trkpt lat="48.50976" lon="6.28263">
        <ele>237.6</ele>
        <time>2022-07-17T09:30:03Z</time>
      </trkpt>
      <trkpt lat="48.50978" lon="6.28277">
        <ele>237.6</ele>
        <time>2022-07-17T09:30:11Z</time>
      </trkpt>
      <trkpt lat="48.50979" lon="6.28292">
        <ele>237.6</ele>
        <time>2022-07-17T09:30:20Z</time>
      </trkpt>
      <trkpt lat="48.5098" lon="6.28306">
        <ele>237.6</ele>
        <time>2022-07-17T09:30:28Z</time>
      </trkpt>
      <trkpt lat="48.50979" lon="6.28321">
        <ele>237.6</ele>
        <time>2022-07-17T09:30:36Z</time>
      </trkpt>
      <trkpt lat="48.50978" lon="6.28335">
        <ele>237.6</ele>
        <time>2022-07-17T09:30:44Z</time>
      </trkpt>
      <trkpt lat="48.50976" lon="6.28349">
        <ele>237.6</ele>
        <time>2022-07-17T09:30:52Z</time>
      </trkpt>
      <trkpt lat="48.50974" lon="6.28363">
        <ele>237.5</ele>
        <time>2022-07-17T09:31:00Z</time>
      </trkpt>
      <trkpt lat="48.50973" lon="6.28378">
        <ele>237.5</ele>
        <time>2022-07-17T09:31:08Z</time>
      </trkpt>
      <trkpt lat="48.50972" lon="6.28393">
        <ele>237.4</ele>
        <time>2022-07-17T09:31:16Z</time>
      </trkpt>
      <trkpt lat="48.50971" lon="6.28406">
        <ele>237.4</ele>
        <time>2022-07-17T09:31:24Z</time>
      </trkpt>
      <trkpt lat="48.50968" lon="6.28419">
        <ele>237.3</ele>
        <time>2022-07-17T09:31:32Z</time>
      </trkpt>
      <trkpt lat="48.50964" lon="6.28433">
        <ele>237.3</ele>
        <time>2022-07-17T09:31:40Z</time>
      </trkpt>
      <trkpt lat="48.5096" lon="6.28447">
        <ele>237.3</ele>
        <time>2022-07-17T09:31:48Z</time>
      </trkpt>
      <trkpt lat="48.50956" lon="6.28459">
        <ele>237.3</ele>
        <time>2022-07-17T09:31:56Z</time>
      </trkpt>
      <trkpt lat="48.50953" lon="6.28472">
        <ele>237.3</ele>
        <time>2022-07-17T09:32:04Z</time>
      </trkpt>
      <trkpt lat="48.50949" lon="6.28486">
        <ele>237.3</ele>
        <time>2022-07-17T09:32:12Z</time>
      </trkpt>
      <trkpt lat="48.50945" lon="6.285">
        <ele>237.3</ele>
        <time>2022-07-17T09:32:20Z</time>
      </trkpt>
      <trkpt lat="48.5094" lon="6.28512">
        <ele>237.3</ele>
        <time>2022-07-17T09:32:28Z</time>
      </trkpt>
      <trkpt lat="48.50935" lon="6.28525">
        <ele>237.3</ele>
        <time>2022-07-17T09:32:36Z</time>
      </trkpt>
      <trkpt lat="48.50929" lon="6.28536">
        <ele>237.2</ele>
        <time>2022-07-17T09:32:44Z</time>
      </trkpt>
      <trkpt lat="48.50923" lon="6.28548">
        <ele>237.2</ele>
        <time>2022-07-17T09:32:52Z</time>
      </trkpt>
      <trkpt lat="48.50917" lon="6.28558">
        <ele>237.1</ele>
        <time>2022-07-17T09:33:00Z</time>
      </trkpt>
      <trkpt lat="48.50909" lon="6.28569">
        <ele>237.1</ele>
        <time>2022-07-17T09:33:08Z</time>
      </trkpt>
      <trkpt lat="48.50902" lon="6.28577">
        <ele>237.1</ele>
        <time>2022-07-17T09:33:16Z</time>
      </trkpt>
      <trkpt lat="48.50895" lon="6.28587">
        <ele>237.1</ele>
        <time>2022-07-17T09:33:24Z</time>
      </trkpt>
      <trkpt lat="48.50888" lon="6.28597">
        <ele>237.2</ele>
        <time>2022-07-17T09:33:32Z</time>
      </trkpt>
      <trkpt lat="48.50882" lon="6.28606">
        <ele>237.2</ele>
        <time>2022-07-17T09:33:40Z</time>
      </trkpt>
      <trkpt lat="48.50875" lon="6.28616">
        <ele>237.2</ele>
        <time>2022-07-17T09:33:48Z</time>
      </trkpt>
      <trkpt lat="48.50868" lon="6.28627">
        <ele>237.2</ele>
        <time>2022-07-17T09:33:56Z</time>
      </trkpt>
      <trkpt lat="48.50861" lon="6.28638">
        <ele>237.2</ele>
        <time>2022-07-17T09:34:04Z</time>
      </trkpt>
      <trkpt lat="48.50855" lon="6.28649">
        <ele>237.1</ele>
        <time>2022-07-17T09:34:12Z</time>
      </trkpt>
      <trkpt lat="48.50848" lon="6.28659">
        <ele>237.1</ele>
        <time>2022-07-17T09:34:21Z</time>
      </trkpt>
      <trkpt lat="48.50842" lon="6.2867">
        <ele>237.1</ele>
        <time>2022-07-17T09:34:29Z</time>
      </trkpt>
      <trkpt lat="48.50836" lon="6.28683">
        <ele>237.1</ele>
        <time>2022-07-17T09:34:37Z</time>
      </trkpt>
      <trkpt lat="48.5083" lon="6.28694">
        <ele>237.2</ele>
        <time>2022-07-17T09:34:45Z</time>
      </trkpt>
      <trkpt lat="48.50824" lon="6.28705">
        <ele>237.2</ele>
        <time>2022-07-17T09:34:54Z</time>
      </trkpt>
      <trkpt lat="48.50818" lon="6.28716">
        <ele>237.3</ele>
        <time>2022-07-17T09:35:03Z</time>
      </trkpt>
      <trkpt lat="48.50812" lon="6.28728">
        <ele>237.3</ele>
        <time>2022-07-17T09:35:11Z</time>
      </trkpt>
      <trkpt lat="48.50806" lon="6.28739">
        <ele>237.3</ele>
        <time>2022-07-17T09:35:19Z</time>
      </trkpt>
      <trkpt lat="48.50799" lon="6.28751">
        <ele>237.3</ele>
        <time>2022-07-17T09:35:27Z</time>
      </trkpt>
      <trkpt lat="48.50794" lon="6.28762">
        <ele>237.3</ele>
        <time>2022-07-17T09:35:35Z</time>
      </trkpt>
      <trkpt lat="48.50787" lon="6.28773">
        <ele>237.4</ele>
        <time>2022-07-17T09:35:43Z</time>
      </trkpt>
      <trkpt lat="48.50781" lon="6.28783">
        <ele>237.4</ele>
        <time>2022-07-17T09:35:51Z</time>
      </trkpt>
      <trkpt lat="48.50775" lon="6.28795">
        <ele>237.4</ele>
        <time>2022-07-17T09:36:00Z</time>
      </trkpt>
      <trkpt lat="48.5077" lon="6.28807">
        <ele>237.4</ele>
        <time>2022-07-17T09:36:08Z</time>
      </trkpt>
      <trkpt lat="48.50766" lon="6.28821">
        <ele>237.4</ele>
        <time>2022-07-17T09:36:17Z</time>
      </trkpt>
      <trkpt lat="48.50761" lon="6.28834">
        <ele>237.5</ele>
        <time>2022-07-17T09:36:27Z</time>
      </trkpt>
      <trkpt lat="48.50755" lon="6.28845">
        <ele>237.4</ele>
        <time>2022-07-17T09:36:36Z</time>
      </trkpt>
      <trkpt lat="48.50749" lon="6.28856">
        <ele>237.4</ele>
        <time>2022-07-17T09:36:44Z</time>
      </trkpt>
      <trkpt lat="48.50745" lon="6.28868">
        <ele>237.4</ele>
        <time>2022-07-17T09:36:52Z</time>
      </trkpt>
      <trkpt lat="48.50739" lon="6.2888">
        <ele>237.3</ele>
        <time>2022-07-17T09:37:01Z</time>
      </trkpt>
      <trkpt lat="48.50734" lon="6.28893">
        <ele>237.3</ele>
        <time>2022-07-17T09:37:10Z</time>
      </trkpt>
      <trkpt lat="48.50728" lon="6.28904">
        <ele>237.4</ele>
        <time>2022-07-17T09:37:18Z</time>
      </trkpt>
      <trkpt lat="48.50723" lon="6.28916">
        <ele>237.4</ele>
        <time>2022-07-17T09:37:26Z</time>
      </trkpt>
      <trkpt lat="48.50718" lon="6.28928">
        <ele>237.4</ele>
        <time>2022-07-17T09:37:34Z</time>
      </trkpt>
      <trkpt lat="48.50713" lon="6.28939">
        <ele>237.5</ele>
        <time>2022-07-17T09:37:42Z</time>
      </trkpt>
      <trkpt lat="48.50707" lon="6.2895">
        <ele>237.5</ele>
        <time>2022-07-17T09:37:50Z</time>
      </trkpt>
      <trkpt lat="48.50701" lon="6.28962">
        <ele>237.7</ele>
        <time>2022-07-17T09:37:59Z</time>
      </trkpt>
      <trkpt lat="48.50696" lon="6.28974">
        <ele>237.8</ele>
        <time>2022-07-17T09:38:07Z</time>
      </trkpt>
      <trkpt lat="48.5069" lon="6.28985">
        <ele>237.9</ele>
        <time>2022-07-17T09:38:16Z</time>
      </trkpt>
      <trkpt lat="48.50681" lon="6.28981">
        <ele>237.9</ele>
        <time>2022-07-17T09:38:27Z</time>
      </trkpt>
      <trkpt lat="48.50675" lon="6.28971">
        <ele>237.9</ele>
        <time>2022-07-17T09:38:35Z</time>
      </trkpt>
      <trkpt lat="48.50669" lon="6.28959">
        <ele>237.9</ele>
        <time>2022-07-17T09:38:43Z</time>
      </trkpt>
      <trkpt lat="48.50665" lon="6.28947">
        <ele>237.9</ele>
        <time>2022-07-17T09:38:51Z</time>
      </trkpt>
      <trkpt lat="48.5066" lon="6.28935">
        <ele>237.8</ele>
        <time>2022-07-17T09:38:59Z</time>
      </trkpt>
      <trkpt lat="48.50655" lon="6.28922">
        <ele>237.7</ele>
        <time>2022-07-17T09:39:07Z</time>
      </trkpt>
      <trkpt lat="48.5065" lon="6.2891">
        <ele>237.6</ele>
        <time>2022-07-17T09:39:15Z</time>
      </trkpt>
      <trkpt lat="48.50645" lon="6.28898">
        <ele>237.5</ele>
        <time>2022-07-17T09:39:23Z</time>
      </trkpt>
      <trkpt lat="48.50641" lon="6.28886">
        <ele>237.4</ele>
        <time>2022-07-17T09:39:31Z</time>
      </trkpt>
      <trkpt lat="48.50636" lon="6.28873">
        <ele>237.3</ele>
        <time>2022-07-17T09:39:40Z</time>
      </trkpt>
      <trkpt lat="48.50632" lon="6.28859">
        <ele>237.1</ele>
        <time>2022-07-17T09:39:48Z</time>
      </trkpt>
      <trkpt lat="48.50628" lon="6.28846">
        <ele>237</ele>
        <time>2022-07-17T09:39:57Z</time>
      </trkpt>
      <trkpt lat="48.50625" lon="6.28833">
        <ele>237</ele>
        <time>2022-07-17T09:40:06Z</time>
      </trkpt>
      <trkpt lat="48.50621" lon="6.2882">
        <ele>237.2</ele>
        <time>2022-07-17T09:40:16Z</time>
      </trkpt>
      <trkpt lat="48.50617" lon="6.28807">
        <ele>237.4</ele>
        <time>2022-07-17T09:40:25Z</time>
      </trkpt>
      <trkpt lat="48.50612" lon="6.28794">
        <ele>237.5</ele>
        <time>2022-07-17T09:40:34Z</time>
      </trkpt>
      <trkpt lat="48.50605" lon="6.28784">
        <ele>237.4</ele>
        <time>2022-07-17T09:40:42Z</time>
      </trkpt>
      <trkpt lat="48.50597" lon="6.28778">
        <ele>237.4</ele>
        <time>2022-07-17T09:40:50Z</time>
      </trkpt>
      <trkpt lat="48.50588" lon="6.28775">
        <ele>237.4</ele>
        <time>2022-07-17T09:41:00Z</time>
      </trkpt>
      <trkpt lat="48.50578" lon="6.28777">
        <ele>237.3</ele>
        <time>2022-07-17T09:41:09Z</time>
      </trkpt>
      <trkpt lat="48.50569" lon="6.28781">
        <ele>237.3</ele>
        <time>2022-07-17T09:41:17Z</time>
      </trkpt>
      <trkpt lat="48.50559" lon="6.28785">
        <ele>237.2</ele>
        <time>2022-07-17T09:41:25Z</time>
      </trkpt>
      <trkpt lat="48.5055" lon="6.28788">
        <ele>237.1</ele>
        <time>2022-07-17T09:41:34Z</time>
      </trkpt>
      <trkpt lat="48.50541" lon="6.28794">
        <ele>237.1</ele>
        <time>2022-07-17T09:41:42Z</time>
      </trkpt>
      <trkpt lat="48.50533" lon="6.288">
        <ele>237</ele>
        <time>2022-07-17T09:41:49Z</time>
      </trkpt>
      <trkpt lat="48.50524" lon="6.28806">
        <ele>237</ele>
        <time>2022-07-17T09:41:57Z</time>
      </trkpt>
      <trkpt lat="48.50515" lon="6.28811">
        <ele>236.9</ele>
        <time>2022-07-17T09:42:04Z</time>
      </trkpt>
      <trkpt lat="48.50506" lon="6.28817">
        <ele>236.9</ele>
        <time>2022-07-17T09:42:12Z</time>
      </trkpt>
      <trkpt lat="48.50498" lon="6.28822">
        <ele>236.8</ele>
        <time>2022-07-17T09:42:20Z</time>
      </trkpt>
      <trkpt lat="48.50489" lon="6.28827">
        <ele>236.8</ele>
        <time>2022-07-17T09:42:28Z</time>
      </trkpt>
      <trkpt lat="48.5048" lon="6.28834">
        <ele>236.7</ele>
        <time>2022-07-17T09:42:36Z</time>
      </trkpt>
      <trkpt lat="48.50471" lon="6.28839">
        <ele>236.8</ele>
        <time>2022-07-17T09:42:44Z</time>
      </trkpt>
      <trkpt lat="48.50463" lon="6.28833">
        <ele>237.2</ele>
        <time>2022-07-17T09:42:53Z</time>
      </trkpt>
      <trkpt lat="48.50457" lon="6.28821">
        <ele>237.3</ele>
        <time>2022-07-17T09:43:01Z</time>
      </trkpt>
      <trkpt lat="48.50452" lon="6.28824">
        <ele>237.3</ele>
        <time>2022-07-17T09:43:10Z</time>
      </trkpt>
      <trkpt lat="48.50452" lon="6.28824">
        <ele>237.3</ele>
        <time>2022-07-17T09:43:12Z</time>
      </trkpt>
      <trkpt lat="48.50452" lon="6.28824">
        <ele>237.3</ele>
        <time>2022-07-17T09:43:13Z</time>
      </trkpt>
      <trkpt lat="48.50452" lon="6.28824">
        <ele>237.3</ele>
        <time>2022-07-17T09:43:14Z</time>
      </trkpt>
      <trkpt lat="48.50452" lon="6.28824">
        <ele>237.3</ele>
        <time>2022-07-17T09:43:15Z</time>
      </trkpt>
      <trkpt lat="48.50452" lon="6.28824">
        <ele>237.3</ele>
        <time>2022-07-17T09:43:22Z</time>
      </trkpt>
      <trkpt lat="48.50442" lon="6.28827">
        <ele>237.3</ele>
        <time>2022-07-17T09:43:37Z</time>
      </trkpt>
      <trkpt lat="48.50434" lon="6.28832">
        <ele>237.3</ele>
        <time>2022-07-17T09:43:46Z</time>
      </trkpt>
      <trkpt lat="48.50427" lon="6.28841">
        <ele>237.3</ele>
        <time>2022-07-17T09:43:55Z</time>
      </trkpt>
      <trkpt lat="48.50419" lon="6.28847">
        <ele>237.4</ele>
        <time>2022-07-17T09:44:03Z</time>
      </trkpt>
      <trkpt lat="48.50411" lon="6.28856">
        <ele>237.4</ele>
        <time>2022-07-17T09:44:14Z</time>
      </trkpt>
      <trkpt lat="48.50405" lon="6.28862">
        <ele>237.4</ele>
        <time>2022-07-17T09:44:24Z</time>
      </trkpt>
      <trkpt lat="48.50404" lon="6.28862">
        <ele>237.4</ele>
        <time>2022-07-17T09:44:25Z</time>
      </trkpt>
      <trkpt lat="48.50405" lon="6.28862">
        <ele>237.4</ele>
        <time>2022-07-17T09:44:27Z</time>
      </trkpt>
      <trkpt lat="48.50404" lon="6.28862">
        <ele>237.4</ele>
        <time>2022-07-17T09:44:28Z</time>
      </trkpt>
      <trkpt lat="48.50404" lon="6.28862">
        <ele>237.4</ele>
        <time>2022-07-17T09:44:29Z</time>
      </trkpt>
      <trkpt lat="48.50404" lon="6.28862">
        <ele>237.4</ele>
        <time>2022-07-17T09:44:40Z</time>
      </trkpt>
      <trkpt lat="48.50401" lon="6.28865">
        <ele>237.4</ele>
        <time>2022-07-17T09:44:46Z</time>
      </trkpt>
      <trkpt lat="48.50401" lon="6.28865">
        <ele>237.4</ele>
        <time>2022-07-17T09:44:48Z</time>
      </trkpt>
      <trkpt lat="48.50401" lon="6.28865">
        <ele>237.4</ele>
        <time>2022-07-17T09:44:49Z</time>
      </trkpt>
      <trkpt lat="48.504" lon="6.28865">
        <ele>237.4</ele>
        <time>2022-07-17T09:44:51Z</time>
      </trkpt>
      <trkpt lat="48.50392" lon="6.28872">
        <ele>237.4</ele>
        <time>2022-07-17T09:44:59Z</time>
      </trkpt>
      <trkpt lat="48.50391" lon="6.28873">
        <ele>237.4</ele>
        <time>2022-07-17T09:45:04Z</time>
      </trkpt>
      <trkpt lat="48.5039" lon="6.28873">
        <ele>237.4</ele>
        <time>2022-07-17T09:45:08Z</time>
      </trkpt>
      <trkpt lat="48.5039" lon="6.28873">
        <ele>237.4</ele>
        <time>2022-07-17T09:45:10Z</time>
      </trkpt>
      <trkpt lat="48.5039" lon="6.28873">
        <ele>237.4</ele>
        <time>2022-07-17T09:45:12Z</time>
      </trkpt>
      <trkpt lat="48.5039" lon="6.28873">
        <ele>237.4</ele>
        <time>2022-07-17T09:45:13Z</time>
      </trkpt>
      <trkpt lat="48.5039" lon="6.28873">
        <ele>237.4</ele>
        <time>2022-07-17T09:45:19Z</time>
      </trkpt>
      <trkpt lat="48.5039" lon="6.28873">
        <ele>237.4</ele>
        <time>2022-07-17T09:45:22Z</time>
      </trkpt>
      <trkpt lat="48.5039" lon="6.28873">
        <ele>237.4</ele>
        <time>2022-07-17T09:45:52Z</time>
      </trkpt>
      <trkpt lat="48.50389" lon="6.28873">
        <ele>237.4</ele>
        <time>2022-07-17T09:45:56Z</time>
      </trkpt>
      <trkpt lat="48.50389" lon="6.28873">
        <ele>237.4</ele>
        <time>2022-07-17T09:46:00Z</time>
      </trkpt>
      <trkpt lat="48.5038" lon="6.28875">
        <ele>237.4</ele>
        <time>2022-07-17T09:46:16Z</time>
      </trkpt>
      <trkpt lat="48.5037" lon="6.28877">
        <ele>237.5</ele>
        <time>2022-07-17T09:46:26Z</time>
      </trkpt>
      <trkpt lat="48.50361" lon="6.2888">
        <ele>237.5</ele>
        <time>2022-07-17T09:46:35Z</time>
      </trkpt>
      <trkpt lat="48.50352" lon="6.28885">
        <ele>237.5</ele>
        <time>2022-07-17T09:46:45Z</time>
      </trkpt>
      <trkpt lat="48.50342" lon="6.2889">
        <ele>237.5</ele>
        <time>2022-07-17T09:46:56Z</time>
      </trkpt>
      <trkpt lat="48.50333" lon="6.28895">
        <ele>237.5</ele>
        <time>2022-07-17T09:47:09Z</time>
      </trkpt>
      <trkpt lat="48.50324" lon="6.289">
        <ele>237.5</ele>
        <time>2022-07-17T09:47:19Z</time>
      </trkpt>
      <trkpt lat="48.50318" lon="6.28903">
        <ele>237.5</ele>
        <time>2022-07-17T09:47:28Z</time>
      </trkpt>
      <trkpt lat="48.50319" lon="6.28903">
        <ele>237.5</ele>
        <time>2022-07-17T09:47:32Z</time>
      </trkpt>
      <trkpt lat="48.50319" lon="6.28903">
        <ele>237.5</ele>
        <time>2022-07-17T09:47:33Z</time>
      </trkpt>
      <trkpt lat="48.50318" lon="6.28903">
        <ele>237.5</ele>
        <time>2022-07-17T09:47:39Z</time>
      </trkpt>
      <trkpt lat="48.50318" lon="6.28903">
        <ele>237.5</ele>
        <time>2022-07-17T09:47:40Z</time>
      </trkpt>
      <trkpt lat="48.50318" lon="6.28903">
        <ele>237.5</ele>
        <time>2022-07-17T09:47:45Z</time>
      </trkpt>
      <trkpt lat="48.50318" lon="6.28903">
        <ele>237.5</ele>
        <time>2022-07-17T09:47:46Z</time>
      </trkpt>
      <trkpt lat="48.50318" lon="6.28903">
        <ele>237.6</ele>
        <time>2022-07-17T09:47:51Z</time>
      </trkpt>
      <trkpt lat="48.50318" lon="6.28903">
        <ele>237.6</ele>
        <time>2022-07-17T09:47:52Z</time>
      </trkpt>
      <trkpt lat="48.50318" lon="6.28903">
        <ele>237.6</ele>
        <time>2022-07-17T09:47:53Z</time>
      </trkpt>
      <trkpt lat="48.50318" lon="6.28903">
        <ele>237.6</ele>
        <time>2022-07-17T09:47:54Z</time>
      </trkpt>
      <trkpt lat="48.50318" lon="6.28903">
        <ele>237.6</ele>
        <time>2022-07-17T09:47:55Z</time>
      </trkpt>
      <trkpt lat="48.50318" lon="6.28903">
        <ele>237.6</ele>
        <time>2022-07-17T09:47:56Z</time>
      </trkpt>
      <trkpt lat="48.50319" lon="6.28903">
        <ele>237.6</ele>
        <time>2022-07-17T09:47:57Z</time>
      </trkpt>
      <trkpt lat="48.50319" lon="6.28904">
        <ele>237.6</ele>
        <time>2022-07-17T09:47:59Z</time>
      </trkpt>
      <trkpt lat="48.50318" lon="6.28904">
        <ele>237.6</ele>
        <time>2022-07-17T09:48:00Z</time>
      </trkpt>
      <trkpt lat="48.50318" lon="6.28904">
        <ele>237.6</ele>
        <time>2022-07-17T09:48:02Z</time>
      </trkpt>
      <trkpt lat="48.50318" lon="6.28903">
        <ele>237.6</ele>
        <time>2022-07-17T09:48:04Z</time>
      </trkpt>
      <trkpt lat="48.50318" lon="6.28903">
        <ele>237.6</ele>
        <time>2022-07-17T09:48:06Z</time>
      </trkpt>
      <trkpt lat="48.50318" lon="6.28903">
        <ele>237.6</ele>
        <time>2022-07-17T09:48:08Z</time>
      </trkpt>
      <trkpt lat="48.50318" lon="6.28903">
        <ele>237.6</ele>
        <time>2022-07-17T09:48:09Z</time>
      </trkpt>
      <trkpt lat="48.50318" lon="6.28902">
        <ele>237.6</ele>
        <time>2022-07-17T09:48:12Z</time>
      </trkpt>
      <trkpt lat="48.50319" lon="6.28901">
        <ele>237.6</ele>
        <time>2022-07-17T09:48:21Z</time>
      </trkpt>
      <trkpt lat="48.50319" lon="6.28901">
        <ele>237.6</ele>
        <time>2022-07-17T09:48:23Z</time>
      </trkpt>
      <trkpt lat="48.50319" lon="6.28901">
        <ele>237.6</ele>
        <time>2022-07-17T09:48:25Z</time>
      </trkpt>
      <trkpt lat="48.50319" lon="6.28902">
        <ele>237.6</ele>
        <time>2022-07-17T09:48:27Z</time>
      </trkpt>
      <trkpt lat="48.50318" lon="6.28902">
        <ele>237.6</ele>
        <time>2022-07-17T09:48:34Z</time>
      </trkpt>
      <trkpt lat="48.50318" lon="6.28901">
        <ele>237.6</ele>
        <time>2022-07-17T09:48:35Z</time>
      </trkpt>
      <trkpt lat="48.50318" lon="6.28901">
        <ele>237.6</ele>
        <time>2022-07-17T09:48:38Z</time>
      </trkpt>
      <trkpt lat="48.50317" lon="6.28901">
        <ele>237.6</ele>
        <time>2022-07-17T09:48:39Z</time>
      </trkpt>
      <trkpt lat="48.50317" lon="6.28902">
        <ele>237.6</ele>
        <time>2022-07-17T09:48:43Z</time>
      </trkpt>
      <trkpt lat="48.50317" lon="6.28901">
        <ele>237.6</ele>
        <time>2022-07-17T09:48:45Z</time>
      </trkpt>
      <trkpt lat="48.50318" lon="6.28901">
        <ele>237.6</ele>
        <time>2022-07-17T09:48:49Z</time>
      </trkpt>
      <trkpt lat="48.50318" lon="6.28901">
        <ele>237.6</ele>
        <time>2022-07-17T09:48:51Z</time>
      </trkpt>
      <trkpt lat="48.50318" lon="6.28901">
        <ele>237.6</ele>
        <time>2022-07-17T09:48:53Z</time>
      </trkpt>
      <trkpt lat="48.50318" lon="6.28901">
        <ele>237.6</ele>
        <time>2022-07-17T09:48:58Z</time>
      </trkpt>
      <trkpt lat="48.50318" lon="6.28901">
        <ele>237.6</ele>
        <time>2022-07-17T09:48:59Z</time>
      </trkpt>
      <trkpt lat="48.50318" lon="6.28901">
        <ele>237.6</ele>
        <time>2022-07-17T09:49:03Z</time>
      </trkpt>
      <trkpt lat="48.50318" lon="6.28901">
        <ele>237.6</ele>
        <time>2022-07-17T09:49:04Z</time>
      </trkpt>
      <trkpt lat="48.50318" lon="6.28901">
        <ele>237.6</ele>
        <time>2022-07-17T09:49:06Z</time>
      </trkpt>
      <trkpt lat="48.50318" lon="6.28901">
        <ele>237.6</ele>
        <time>2022-07-17T09:49:07Z</time>
      </trkpt>
      <trkpt lat="48.50318" lon="6.28901">
        <ele>237.6</ele>
        <time>2022-07-17T09:49:32Z</time>
      </trkpt>
      <trkpt lat="48.50319" lon="6.28902">
        <ele>237.6</ele>
        <time>2022-07-17T09:49:35Z</time>
      </trkpt>
      <trkpt lat="48.50319" lon="6.28902">
        <ele>237.6</ele>
        <time>2022-07-17T09:49:52Z</time>
      </trkpt>
      <trkpt lat="48.50319" lon="6.28902">
        <ele>237.6</ele>
        <time>2022-07-17T09:49:54Z</time>
      </trkpt>
      <trkpt lat="48.50319" lon="6.28902">
        <ele>237.6</ele>
        <time>2022-07-17T09:49:56Z</time>
      </trkpt>
      <trkpt lat="48.50319" lon="6.28902">
        <ele>237.6</ele>
        <time>2022-07-17T09:49:57Z</time>
      </trkpt>
      <trkpt lat="48.50318" lon="6.28902">
        <ele>237.6</ele>
        <time>2022-07-17T09:49:59Z</time>
      </trkpt>
      <trkpt lat="48.5031" lon="6.28906">
        <ele>237.6</ele>
        <time>2022-07-17T09:50:08Z</time>
      </trkpt>
      <trkpt lat="48.50301" lon="6.28911">
        <ele>237.6</ele>
        <time>2022-07-17T09:50:16Z</time>
      </trkpt>
      <trkpt lat="48.50292" lon="6.28916">
        <ele>237.5</ele>
        <time>2022-07-17T09:50:24Z</time>
      </trkpt>
      <trkpt lat="48.50283" lon="6.28922">
        <ele>237.5</ele>
        <time>2022-07-17T09:50:32Z</time>
      </trkpt>
      <trkpt lat="48.50275" lon="6.28925">
        <ele>237.5</ele>
        <time>2022-07-17T09:50:40Z</time>
      </trkpt>
      <trkpt lat="48.50265" lon="6.2893">
        <ele>237.5</ele>
        <time>2022-07-17T09:50:48Z</time>
      </trkpt>
      <trkpt lat="48.50256" lon="6.28935">
        <ele>237.5</ele>
        <time>2022-07-17T09:50:57Z</time>
      </trkpt>
      <trkpt lat="48.50247" lon="6.28941">
        <ele>237.4</ele>
        <time>2022-07-17T09:51:06Z</time>
      </trkpt>
      <trkpt lat="48.50237" lon="6.28944">
        <ele>237.4</ele>
        <time>2022-07-17T09:51:15Z</time>
      </trkpt>
      <trkpt lat="48.50227" lon="6.28948">
        <ele>237.4</ele>
        <time>2022-07-17T09:51:23Z</time>
      </trkpt>
      <trkpt lat="48.50218" lon="6.28951">
        <ele>237.4</ele>
        <time>2022-07-17T09:51:31Z</time>
      </trkpt>
      <trkpt lat="48.50209" lon="6.28955">
        <ele>237.4</ele>
        <time>2022-07-17T09:51:39Z</time>
      </trkpt>
      <trkpt lat="48.50199" lon="6.28957">
        <ele>237.4</ele>
        <time>2022-07-17T09:51:47Z</time>
      </trkpt>
      <trkpt lat="48.5019" lon="6.28962">
        <ele>237.4</ele>
        <time>2022-07-17T09:51:55Z</time>
      </trkpt>
      <trkpt lat="48.5018" lon="6.28965">
        <ele>237.5</ele>
        <time>2022-07-17T09:52:03Z</time>
      </trkpt>
      <trkpt lat="48.50173" lon="6.28957">
        <ele>237.6</ele>
        <time>2022-07-17T09:52:12Z</time>
      </trkpt>
      <trkpt lat="48.50167" lon="6.28946">
        <ele>237.6</ele>
        <time>2022-07-17T09:52:20Z</time>
      </trkpt>
      <trkpt lat="48.50163" lon="6.28934">
        <ele>237.7</ele>
        <time>2022-07-17T09:52:27Z</time>
      </trkpt>
      <trkpt lat="48.50158" lon="6.28922">
        <ele>237.8</ele>
        <time>2022-07-17T09:52:35Z</time>
      </trkpt>
      <trkpt lat="48.50152" lon="6.2891">
        <ele>238</ele>
        <time>2022-07-17T09:52:44Z</time>
      </trkpt>
      <trkpt lat="48.50147" lon="6.28898">
        <ele>238.3</ele>
        <time>2022-07-17T09:52:52Z</time>
      </trkpt>
      <trkpt lat="48.50143" lon="6.28886">
        <ele>238.6</ele>
        <time>2022-07-17T09:53:00Z</time>
      </trkpt>
      <trkpt lat="48.50138" lon="6.28874">
        <ele>238.8</ele>
        <time>2022-07-17T09:53:09Z</time>
      </trkpt>
      <trkpt lat="48.50132" lon="6.28862">
        <ele>238.9</ele>
        <time>2022-07-17T09:53:17Z</time>
      </trkpt>
      <trkpt lat="48.50126" lon="6.2885">
        <ele>239.1</ele>
        <time>2022-07-17T09:53:25Z</time>
      </trkpt>
      <trkpt lat="48.50121" lon="6.28839">
        <ele>239.2</ele>
        <time>2022-07-17T09:53:33Z</time>
      </trkpt>
      <trkpt lat="48.50115" lon="6.28827">
        <ele>239.3</ele>
        <time>2022-07-17T09:53:42Z</time>
      </trkpt>
      <trkpt lat="48.50109" lon="6.28816">
        <ele>239.4</ele>
        <time>2022-07-17T09:53:50Z</time>
      </trkpt>
      <trkpt lat="48.50104" lon="6.28804">
        <ele>239.5</ele>
        <time>2022-07-17T09:53:59Z</time>
      </trkpt>
      <trkpt lat="48.50099" lon="6.28792">
        <ele>239.6</ele>
        <time>2022-07-17T09:54:07Z</time>
      </trkpt>
      <trkpt lat="48.50094" lon="6.28781">
        <ele>239.6</ele>
        <time>2022-07-17T09:54:15Z</time>
      </trkpt>
      <trkpt lat="48.50088" lon="6.2877">
        <ele>239.7</ele>
        <time>2022-07-17T09:54:23Z</time>
      </trkpt>
      <trkpt lat="48.50082" lon="6.28757">
        <ele>239.8</ele>
        <time>2022-07-17T09:54:32Z</time>
      </trkpt>
      <trkpt lat="48.50076" lon="6.28746">
        <ele>239.9</ele>
        <time>2022-07-17T09:54:40Z</time>
      </trkpt>
      <trkpt lat="48.50071" lon="6.28734">
        <ele>240</ele>
        <time>2022-07-17T09:54:48Z</time>
      </trkpt>
      <trkpt lat="48.50066" lon="6.28722">
        <ele>240.2</ele>
        <time>2022-07-17T09:54:55Z</time>
      </trkpt>
      <trkpt lat="48.50062" lon="6.28709">
        <ele>240.4</ele>
        <time>2022-07-17T09:55:03Z</time>
      </trkpt>
      <trkpt lat="48.50058" lon="6.28696">
        <ele>240.5</ele>
        <time>2022-07-17T09:55:10Z</time>
      </trkpt>
      <trkpt lat="48.50055" lon="6.28683">
        <ele>240.6</ele>
        <time>2022-07-17T09:55:19Z</time>
      </trkpt>
      <trkpt lat="48.50059" lon="6.28669">
        <ele>241</ele>
        <time>2022-07-17T09:55:28Z</time>
      </trkpt>
      <trkpt lat="48.50067" lon="6.2866">
        <ele>241.1</ele>
        <time>2022-07-17T09:55:36Z</time>
      </trkpt>
      <trkpt lat="48.50075" lon="6.28652">
        <ele>241.1</ele>
        <time>2022-07-17T09:55:44Z</time>
      </trkpt>
      <trkpt lat="48.50084" lon="6.28643">
        <ele>240.3</ele>
        <time>2022-07-17T09:55:52Z</time>
      </trkpt>
      <trkpt lat="48.50092" lon="6.28634">
        <ele>239</ele>
        <time>2022-07-17T09:56:00Z</time>
      </trkpt>
      <trkpt lat="48.50099" lon="6.28625">
        <ele>238.8</ele>
        <time>2022-07-17T09:56:08Z</time>
      </trkpt>
      <trkpt lat="48.50107" lon="6.28617">
        <ele>239</ele>
        <time>2022-07-17T09:56:16Z</time>
      </trkpt>
      <trkpt lat="48.50115" lon="6.28608">
        <ele>238.9</ele>
        <time>2022-07-17T09:56:24Z</time>
      </trkpt>
      <trkpt lat="48.50123" lon="6.286">
        <ele>238.4</ele>
        <time>2022-07-17T09:56:32Z</time>
      </trkpt>
      <trkpt lat="48.50131" lon="6.28591">
        <ele>238.6</ele>
        <time>2022-07-17T09:56:40Z</time>
      </trkpt>
      <trkpt lat="48.50138" lon="6.28583">
        <ele>239.1</ele>
        <time>2022-07-17T09:56:47Z</time>
      </trkpt>
      <trkpt lat="48.50147" lon="6.28575">
        <ele>238.7</ele>
        <time>2022-07-17T09:56:55Z</time>
      </trkpt>
      <trkpt lat="48.50155" lon="6.28567">
        <ele>238.3</ele>
        <time>2022-07-17T09:57:03Z</time>
      </trkpt>
      <trkpt lat="48.50164" lon="6.28559">
        <ele>239.5</ele>
        <time>2022-07-17T09:57:11Z</time>
      </trkpt>
      <trkpt lat="48.50172" lon="6.28552">
        <ele>240.6</ele>
        <time>2022-07-17T09:57:18Z</time>
      </trkpt>
      <trkpt lat="48.5018" lon="6.28545">
        <ele>241.8</ele>
        <time>2022-07-17T09:57:26Z</time>
      </trkpt>
      <trkpt lat="48.50189" lon="6.28538">
        <ele>241.3</ele>
        <time>2022-07-17T09:57:34Z</time>
      </trkpt>
      <trkpt lat="48.50197" lon="6.28532">
        <ele>240</ele>
        <time>2022-07-17T09:57:41Z</time>
      </trkpt>
      <trkpt lat="48.50206" lon="6.28527">
        <ele>239.1</ele>
        <time>2022-07-17T09:57:49Z</time>
      </trkpt>
      <trkpt lat="48.50215" lon="6.28522">
        <ele>239.2</ele>
        <time>2022-07-17T09:57:57Z</time>
      </trkpt>
      <trkpt lat="48.50225" lon="6.28516">
        <ele>240</ele>
        <time>2022-07-17T09:58:05Z</time>
      </trkpt>
      <trkpt lat="48.50234" lon="6.28511">
        <ele>240.3</ele>
        <time>2022-07-17T09:58:13Z</time>
      </trkpt>
      <trkpt lat="48.50243" lon="6.28506">
        <ele>240.5</ele>
        <time>2022-07-17T09:58:21Z</time>
      </trkpt>
      <trkpt lat="48.50252" lon="6.28501">
        <ele>240.6</ele>
        <time>2022-07-17T09:58:29Z</time>
      </trkpt>
      <trkpt lat="48.50261" lon="6.28498">
        <ele>240.4</ele>
        <time>2022-07-17T09:58:37Z</time>
      </trkpt>
      <trkpt lat="48.50269" lon="6.28507">
        <ele>239.9</ele>
        <time>2022-07-17T09:58:46Z</time>
      </trkpt>
      <trkpt lat="48.50271" lon="6.2852">
        <ele>238.4</ele>
        <time>2022-07-17T09:58:54Z</time>
      </trkpt>
      <trkpt lat="48.50275" lon="6.2853">
        <ele>236.9</ele>
        <time>2022-07-17T09:59:03Z</time>
      </trkpt>
      <trkpt lat="48.50276" lon="6.28531">
        <ele>236.8</ele>
        <time>2022-07-17T09:59:04Z</time>
      </trkpt>
      <trkpt lat="48.50285" lon="6.28531">
        <ele>236.2</ele>
        <time>2022-07-17T09:59:11Z</time>
      </trkpt>
      <trkpt lat="48.50294" lon="6.28527">
        <ele>235.7</ele>
        <time>2022-07-17T09:59:17Z</time>
      </trkpt>
      <trkpt lat="48.50303" lon="6.28521">
        <ele>235.6</ele>
        <time>2022-07-17T09:59:25Z</time>
      </trkpt>
      <trkpt lat="48.50311" lon="6.28515">
        <ele>235.8</ele>
        <time>2022-07-17T09:59:35Z</time>
      </trkpt>
      <trkpt lat="48.5032" lon="6.28511">
        <ele>235.8</ele>
        <time>2022-07-17T09:59:43Z</time>
      </trkpt>
      <trkpt lat="48.50329" lon="6.28506">
        <ele>235.5</ele>
        <time>2022-07-17T09:59:52Z</time>
      </trkpt>
      <trkpt lat="48.50339" lon="6.28501">
        <ele>235.5</ele>
        <time>2022-07-17T10:00:00Z</time>
      </trkpt>
      <trkpt lat="48.50348" lon="6.28496">
        <ele>235.6</ele>
        <time>2022-07-17T10:00:07Z</time>
      </trkpt>
      <trkpt lat="48.50358" lon="6.28498">
        <ele>235.7</ele>
        <time>2022-07-17T10:00:14Z</time>
      </trkpt>
      <trkpt lat="48.50365" lon="6.28507">
        <ele>235.4</ele>
        <time>2022-07-17T10:00:22Z</time>
      </trkpt>
      <trkpt lat="48.50371" lon="6.28518">
        <ele>235.3</ele>
        <time>2022-07-17T10:00:31Z</time>
      </trkpt>
      <trkpt lat="48.50377" lon="6.28528">
        <ele>235.2</ele>
        <time>2022-07-17T10:00:37Z</time>
      </trkpt>
      <trkpt lat="48.50381" lon="6.28542">
        <ele>235.2</ele>
        <time>2022-07-17T10:00:44Z</time>
      </trkpt>
      <trkpt lat="48.50383" lon="6.28556">
        <ele>235.3</ele>
        <time>2022-07-17T10:00:51Z</time>
      </trkpt>
      <trkpt lat="48.50385" lon="6.2857">
        <ele>235.4</ele>
        <time>2022-07-17T10:00:58Z</time>
      </trkpt>
      <trkpt lat="48.50387" lon="6.28584">
        <ele>235.5</ele>
        <time>2022-07-17T10:01:06Z</time>
      </trkpt>
      <trkpt lat="48.50391" lon="6.28598">
        <ele>235.6</ele>
        <time>2022-07-17T10:01:14Z</time>
      </trkpt>
      <trkpt lat="48.50395" lon="6.28612">
        <ele>235.7</ele>
        <time>2022-07-17T10:01:22Z</time>
      </trkpt>
      <trkpt lat="48.50397" lon="6.28627">
        <ele>235.8</ele>
        <time>2022-07-17T10:01:30Z</time>
      </trkpt>
      <trkpt lat="48.504" lon="6.28641">
        <ele>235.9</ele>
        <time>2022-07-17T10:01:38Z</time>
      </trkpt>
      <trkpt lat="48.50403" lon="6.28655">
        <ele>236</ele>
        <time>2022-07-17T10:01:46Z</time>
      </trkpt>
      <trkpt lat="48.50408" lon="6.28667">
        <ele>236.1</ele>
        <time>2022-07-17T10:01:54Z</time>
      </trkpt>
      <trkpt lat="48.50412" lon="6.2868">
        <ele>236.1</ele>
        <time>2022-07-17T10:02:02Z</time>
      </trkpt>
      <trkpt lat="48.50417" lon="6.28694">
        <ele>236.2</ele>
        <time>2022-07-17T10:02:10Z</time>
      </trkpt>
      <trkpt lat="48.50421" lon="6.28706">
        <ele>236.3</ele>
        <time>2022-07-17T10:02:17Z</time>
      </trkpt>
      <trkpt lat="48.50426" lon="6.28718">
        <ele>236.4</ele>
        <time>2022-07-17T10:02:24Z</time>
      </trkpt>
      <trkpt lat="48.5043" lon="6.28731">
        <ele>236.5</ele>
        <time>2022-07-17T10:02:32Z</time>
      </trkpt>
      <trkpt lat="48.50434" lon="6.28744">
        <ele>236.6</ele>
        <time>2022-07-17T10:02:40Z</time>
      </trkpt>
      <trkpt lat="48.50439" lon="6.28756">
        <ele>236.7</ele>
        <time>2022-07-17T10:02:47Z</time>
      </trkpt>
      <trkpt lat="48.50444" lon="6.28769">
        <ele>236.7</ele>
        <time>2022-07-17T10:02:55Z</time>
      </trkpt>
      <trkpt lat="48.50447" lon="6.28781">
        <ele>236.8</ele>
        <time>2022-07-17T10:03:02Z</time>
      </trkpt>
      <trkpt lat="48.50449" lon="6.28796">
        <ele>236.9</ele>
        <time>2022-07-17T10:03:11Z</time>
      </trkpt>
      <trkpt lat="48.50455" lon="6.28809">
        <ele>237</ele>
        <time>2022-07-17T10:03:19Z</time>
      </trkpt>
      <trkpt lat="48.5046" lon="6.2882">
        <ele>237.1</ele>
        <time>2022-07-17T10:03:26Z</time>
      </trkpt>
      <trkpt lat="48.50464" lon="6.28833">
        <ele>237.2</ele>
        <time>2022-07-17T10:03:34Z</time>
      </trkpt>
      <trkpt lat="48.50472" lon="6.28838">
        <ele>237.3</ele>
        <time>2022-07-17T10:03:45Z</time>
      </trkpt>
      <trkpt lat="48.50481" lon="6.28833">
        <ele>236.7</ele>
        <time>2022-07-17T10:03:54Z</time>
      </trkpt>
      <trkpt lat="48.5049" lon="6.28828">
        <ele>236.8</ele>
        <time>2022-07-17T10:04:02Z</time>
      </trkpt>
      <trkpt lat="48.50498" lon="6.28821">
        <ele>236.8</ele>
        <time>2022-07-17T10:04:10Z</time>
      </trkpt>
      <trkpt lat="48.50507" lon="6.28815">
        <ele>236.9</ele>
        <time>2022-07-17T10:04:17Z</time>
      </trkpt>
      <trkpt lat="48.50515" lon="6.28811">
        <ele>236.9</ele>
        <time>2022-07-17T10:04:24Z</time>
      </trkpt>
      <trkpt lat="48.50524" lon="6.28806">
        <ele>236.9</ele>
        <time>2022-07-17T10:04:31Z</time>
      </trkpt>
      <trkpt lat="48.50533" lon="6.288">
        <ele>237</ele>
        <time>2022-07-17T10:04:39Z</time>
      </trkpt>
      <trkpt lat="48.50541" lon="6.28793">
        <ele>237.1</ele>
        <time>2022-07-17T10:04:47Z</time>
      </trkpt>
      <trkpt lat="48.50549" lon="6.28787">
        <ele>237.1</ele>
        <time>2022-07-17T10:04:55Z</time>
      </trkpt>
      <trkpt lat="48.50559" lon="6.28783">
        <ele>237.2</ele>
        <time>2022-07-17T10:05:04Z</time>
      </trkpt>
      <trkpt lat="48.50568" lon="6.28778">
        <ele>237.3</ele>
        <time>2022-07-17T10:05:12Z</time>
      </trkpt>
      <trkpt lat="48.50577" lon="6.28775">
        <ele>237.3</ele>
        <time>2022-07-17T10:05:20Z</time>
      </trkpt>
      <trkpt lat="48.50586" lon="6.28772">
        <ele>237.4</ele>
        <time>2022-07-17T10:05:28Z</time>
      </trkpt>
      <trkpt lat="48.50596" lon="6.28774">
        <ele>237.4</ele>
        <time>2022-07-17T10:05:37Z</time>
      </trkpt>
      <trkpt lat="48.50605" lon="6.28781">
        <ele>237.4</ele>
        <time>2022-07-17T10:05:45Z</time>
      </trkpt>
      <trkpt lat="48.50612" lon="6.28791">
        <ele>237.5</ele>
        <time>2022-07-17T10:05:53Z</time>
      </trkpt>
      <trkpt lat="48.50618" lon="6.28802">
        <ele>237.5</ele>
        <time>2022-07-17T10:06:00Z</time>
      </trkpt>
      <trkpt lat="48.50622" lon="6.28814">
        <ele>237.3</ele>
        <time>2022-07-17T10:06:08Z</time>
      </trkpt>
      <trkpt lat="48.50627" lon="6.28826">
        <ele>237</ele>
        <time>2022-07-17T10:06:16Z</time>
      </trkpt>
      <trkpt lat="48.50631" lon="6.2884">
        <ele>237</ele>
        <time>2022-07-17T10:06:24Z</time>
      </trkpt>
      <trkpt lat="48.50635" lon="6.28852">
        <ele>237.1</ele>
        <time>2022-07-17T10:06:31Z</time>
      </trkpt>
      <trkpt lat="48.50637" lon="6.28867">
        <ele>237.2</ele>
        <time>2022-07-17T10:06:40Z</time>
      </trkpt>
      <trkpt lat="48.50641" lon="6.28881">
        <ele>237.3</ele>
        <time>2022-07-17T10:06:49Z</time>
      </trkpt>
      <trkpt lat="48.50646" lon="6.28893">
        <ele>237.5</ele>
        <time>2022-07-17T10:06:57Z</time>
      </trkpt>
      <trkpt lat="48.50651" lon="6.28905">
        <ele>237.6</ele>
        <time>2022-07-17T10:07:05Z</time>
      </trkpt>
      <trkpt lat="48.50655" lon="6.28918">
        <ele>237.7</ele>
        <time>2022-07-17T10:07:13Z</time>
      </trkpt>
      <trkpt lat="48.50659" lon="6.28931">
        <ele>237.8</ele>
        <time>2022-07-17T10:07:21Z</time>
      </trkpt>
      <trkpt lat="48.50664" lon="6.28944">
        <ele>237.8</ele>
        <time>2022-07-17T10:07:29Z</time>
      </trkpt>
      <trkpt lat="48.50667" lon="6.28957">
        <ele>237.9</ele>
        <time>2022-07-17T10:07:37Z</time>
      </trkpt>
      <trkpt lat="48.50673" lon="6.28968">
        <ele>237.9</ele>
        <time>2022-07-17T10:07:45Z</time>
      </trkpt>
      <trkpt lat="48.50679" lon="6.28979">
        <ele>237.9</ele>
        <time>2022-07-17T10:07:53Z</time>
      </trkpt>
      <trkpt lat="48.50687" lon="6.28988">
        <ele>237.9</ele>
        <time>2022-07-17T10:08:01Z</time>
      </trkpt>
      <trkpt lat="48.50694" lon="6.28979">
        <ele>237.8</ele>
        <time>2022-07-17T10:08:10Z</time>
      </trkpt>
      <trkpt lat="48.507" lon="6.28967">
        <ele>237.7</ele>
        <time>2022-07-17T10:08:19Z</time>
      </trkpt>
      <trkpt lat="48.50706" lon="6.28955">
        <ele>237.6</ele>
        <time>2022-07-17T10:08:27Z</time>
      </trkpt>
      <trkpt lat="48.5071" lon="6.28943">
        <ele>237.5</ele>
        <time>2022-07-17T10:08:35Z</time>
      </trkpt>
      <trkpt lat="48.50715" lon="6.28931">
        <ele>237.4</ele>
        <time>2022-07-17T10:08:43Z</time>
      </trkpt>
      <trkpt lat="48.5072" lon="6.28919">
        <ele>237.4</ele>
        <time>2022-07-17T10:08:51Z</time>
      </trkpt>
      <trkpt lat="48.50725" lon="6.28906">
        <ele>237.4</ele>
        <time>2022-07-17T10:09:00Z</time>
      </trkpt>
      <trkpt lat="48.50731" lon="6.28895">
        <ele>237.4</ele>
        <time>2022-07-17T10:09:08Z</time>
      </trkpt>
      <trkpt lat="48.50737" lon="6.28884">
        <ele>237.3</ele>
        <time>2022-07-17T10:09:16Z</time>
      </trkpt>
      <trkpt lat="48.50742" lon="6.28871">
        <ele>237.3</ele>
        <time>2022-07-17T10:09:25Z</time>
      </trkpt>
      <trkpt lat="48.50748" lon="6.2886">
        <ele>237.4</ele>
        <time>2022-07-17T10:09:33Z</time>
      </trkpt>
      <trkpt lat="48.50753" lon="6.28847">
        <ele>237.4</ele>
        <time>2022-07-17T10:09:42Z</time>
      </trkpt>
      <trkpt lat="48.50759" lon="6.28837">
        <ele>237.5</ele>
        <time>2022-07-17T10:09:51Z</time>
      </trkpt>
      <trkpt lat="48.50764" lon="6.28825">
        <ele>237.5</ele>
        <time>2022-07-17T10:10:01Z</time>
      </trkpt>
      <trkpt lat="48.50768" lon="6.28812">
        <ele>237.4</ele>
        <time>2022-07-17T10:10:10Z</time>
      </trkpt>
      <trkpt lat="48.50772" lon="6.288">
        <ele>237.4</ele>
        <time>2022-07-17T10:10:19Z</time>
      </trkpt>
      <trkpt lat="48.50777" lon="6.28789">
        <ele>237.4</ele>
        <time>2022-07-17T10:10:28Z</time>
      </trkpt>
      <trkpt lat="48.50785" lon="6.28778">
        <ele>237.4</ele>
        <time>2022-07-17T10:10:36Z</time>
      </trkpt>
      <trkpt lat="48.50791" lon="6.28768">
        <ele>237.4</ele>
        <time>2022-07-17T10:10:43Z</time>
      </trkpt>
      <trkpt lat="48.50796" lon="6.28756">
        <ele>237.3</ele>
        <time>2022-07-17T10:10:52Z</time>
      </trkpt>
      <trkpt lat="48.50803" lon="6.28745">
        <ele>237.3</ele>
        <time>2022-07-17T10:11:00Z</time>
      </trkpt>
      <trkpt lat="48.50809" lon="6.28734">
        <ele>237.3</ele>
        <time>2022-07-17T10:11:08Z</time>
      </trkpt>
      <trkpt lat="48.50814" lon="6.28722">
        <ele>237.3</ele>
        <time>2022-07-17T10:11:16Z</time>
      </trkpt>
      <trkpt lat="48.5082" lon="6.28711">
        <ele>237.3</ele>
        <time>2022-07-17T10:11:24Z</time>
      </trkpt>
      <trkpt lat="48.50826" lon="6.287">
        <ele>237.2</ele>
        <time>2022-07-17T10:11:32Z</time>
      </trkpt>
      <trkpt lat="48.50833" lon="6.2869">
        <ele>237.1</ele>
        <time>2022-07-17T10:11:40Z</time>
      </trkpt>
      <trkpt lat="48.50839" lon="6.28678">
        <ele>237.1</ele>
        <time>2022-07-17T10:11:48Z</time>
      </trkpt>
      <trkpt lat="48.50844" lon="6.28667">
        <ele>237.1</ele>
        <time>2022-07-17T10:11:56Z</time>
      </trkpt>
      <trkpt lat="48.5085" lon="6.28655">
        <ele>237.1</ele>
        <time>2022-07-17T10:12:04Z</time>
      </trkpt>
      <trkpt lat="48.50857" lon="6.28644">
        <ele>237.1</ele>
        <time>2022-07-17T10:12:12Z</time>
      </trkpt>
      <trkpt lat="48.50864" lon="6.28633">
        <ele>237.2</ele>
        <time>2022-07-17T10:12:20Z</time>
      </trkpt>
      <trkpt lat="48.50871" lon="6.28623">
        <ele>237.2</ele>
        <time>2022-07-17T10:12:28Z</time>
      </trkpt>
      <trkpt lat="48.50878" lon="6.28614">
        <ele>237.2</ele>
        <time>2022-07-17T10:12:36Z</time>
      </trkpt>
      <trkpt lat="48.50885" lon="6.28604">
        <ele>237.2</ele>
        <time>2022-07-17T10:12:44Z</time>
      </trkpt>
      <trkpt lat="48.50892" lon="6.28595">
        <ele>237.2</ele>
        <time>2022-07-17T10:12:52Z</time>
      </trkpt>
      <trkpt lat="48.509" lon="6.28585">
        <ele>237.1</ele>
        <time>2022-07-17T10:13:00Z</time>
      </trkpt>
      <trkpt lat="48.50907" lon="6.28575">
        <ele>237.1</ele>
        <time>2022-07-17T10:13:08Z</time>
      </trkpt>
      <trkpt lat="48.50914" lon="6.28566">
        <ele>237.1</ele>
        <time>2022-07-17T10:13:16Z</time>
      </trkpt>
      <trkpt lat="48.50921" lon="6.28555">
        <ele>237.1</ele>
        <time>2022-07-17T10:13:24Z</time>
      </trkpt>
      <trkpt lat="48.50927" lon="6.28544">
        <ele>237.2</ele>
        <time>2022-07-17T10:13:32Z</time>
      </trkpt>
      <trkpt lat="48.50933" lon="6.28532">
        <ele>237.2</ele>
        <time>2022-07-17T10:13:40Z</time>
      </trkpt>
      <trkpt lat="48.50939" lon="6.2852">
        <ele>237.3</ele>
        <time>2022-07-17T10:13:48Z</time>
      </trkpt>
      <trkpt lat="48.50944" lon="6.28508">
        <ele>237.3</ele>
        <time>2022-07-17T10:13:55Z</time>
      </trkpt>
      <trkpt lat="48.50948" lon="6.28496">
        <ele>237.3</ele>
        <time>2022-07-17T10:14:02Z</time>
      </trkpt>
      <trkpt lat="48.50952" lon="6.28483">
        <ele>237.3</ele>
        <time>2022-07-17T10:14:10Z</time>
      </trkpt>
      <trkpt lat="48.50956" lon="6.28469">
        <ele>237.3</ele>
        <time>2022-07-17T10:14:18Z</time>
      </trkpt>
      <trkpt lat="48.50959" lon="6.28454">
        <ele>237.3</ele>
        <time>2022-07-17T10:14:26Z</time>
      </trkpt>
      <trkpt lat="48.50963" lon="6.28442">
        <ele>237.3</ele>
        <time>2022-07-17T10:14:33Z</time>
      </trkpt>
      <trkpt lat="48.50966" lon="6.28428">
        <ele>237.3</ele>
        <time>2022-07-17T10:14:41Z</time>
      </trkpt>
      <trkpt lat="48.50969" lon="6.28413">
        <ele>237.3</ele>
        <time>2022-07-17T10:14:54Z</time>
      </trkpt>
      <trkpt lat="48.50972" lon="6.28399">
        <ele>237.3</ele>
        <time>2022-07-17T10:15:02Z</time>
      </trkpt>
      <trkpt lat="48.50977" lon="6.28394">
        <ele>237.4</ele>
        <time>2022-07-17T10:15:11Z</time>
      </trkpt>
      <trkpt lat="48.50977" lon="6.28394">
        <ele>237.4</ele>
        <time>2022-07-17T10:15:12Z</time>
      </trkpt>
      <trkpt lat="48.50977" lon="6.28395">
        <ele>237.4</ele>
        <time>2022-07-17T10:15:15Z</time>
      </trkpt>
      <trkpt lat="48.50977" lon="6.28395">
        <ele>237.4</ele>
        <time>2022-07-17T10:15:33Z</time>
      </trkpt>
      <trkpt lat="48.50976" lon="6.28395">
        <ele>237.4</ele>
        <time>2022-07-17T10:15:37Z</time>
      </trkpt>
      <trkpt lat="48.50976" lon="6.28395">
        <ele>237.4</ele>
        <time>2022-07-17T10:16:07Z</time>
      </trkpt>
      <trkpt lat="48.50976" lon="6.28395">
        <ele>237.4</ele>
        <time>2022-07-17T10:16:09Z</time>
      </trkpt>
      <trkpt lat="48.50976" lon="6.28395">
        <ele>237.4</ele>
        <time>2022-07-17T10:16:10Z</time>
      </trkpt>
      <trkpt lat="48.50978" lon="6.28381">
        <ele>237.4</ele>
        <time>2022-07-17T10:16:17Z</time>
      </trkpt>
      <trkpt lat="48.5098" lon="6.28378">
        <ele>237.4</ele>
        <time>2022-07-17T10:16:22Z</time>
      </trkpt>
      <trkpt lat="48.5098" lon="6.28379">
        <ele>237.4</ele>
        <time>2022-07-17T10:16:53Z</time>
      </trkpt>
      <trkpt lat="48.50979" lon="6.28393">
        <ele>237.5</ele>
        <time>2022-07-17T10:17:04Z</time>
      </trkpt>
      <trkpt lat="48.5098" lon="6.28393">
        <ele>237.5</ele>
        <time>2022-07-17T10:17:08Z</time>
      </trkpt>
      <trkpt lat="48.5098" lon="6.28393">
        <ele>237.5</ele>
        <time>2022-07-17T10:17:09Z</time>
      </trkpt>
      <trkpt lat="48.5098" lon="6.28393">
        <ele>237.5</ele>
        <time>2022-07-17T10:17:12Z</time>
      </trkpt>
      <trkpt lat="48.5098" lon="6.28393">
        <ele>237.5</ele>
        <time>2022-07-17T10:18:04Z</time>
      </trkpt>
      <trkpt lat="48.50981" lon="6.28393">
        <ele>237.5</ele>
        <time>2022-07-17T10:18:06Z</time>
      </trkpt>
      <trkpt lat="48.50981" lon="6.28393">
        <ele>237.5</ele>
        <time>2022-07-17T10:18:09Z</time>
      </trkpt>
      <trkpt lat="48.50981" lon="6.28393">
        <ele>237.5</ele>
        <time>2022-07-17T10:18:10Z</time>
      </trkpt>
      <trkpt lat="48.50981" lon="6.28393">
        <ele>237.5</ele>
        <time>2022-07-17T10:18:14Z</time>
      </trkpt>
      <trkpt lat="48.50981" lon="6.28393">
        <ele>237.5</ele>
        <time>2022-07-17T10:18:15Z</time>
      </trkpt>
      <trkpt lat="48.5098" lon="6.28393">
        <ele>237.5</ele>
        <time>2022-07-17T10:18:21Z</time>
      </trkpt>
      <trkpt lat="48.50976" lon="6.28381">
        <ele>237.5</ele>
        <time>2022-07-17T10:18:30Z</time>
      </trkpt>
      <trkpt lat="48.50978" lon="6.28366">
        <ele>237.6</ele>
        <time>2022-07-17T10:18:38Z</time>
      </trkpt>
      <trkpt lat="48.5098" lon="6.28351">
        <ele>237.6</ele>
        <time>2022-07-17T10:18:47Z</time>
      </trkpt>
      <trkpt lat="48.50981" lon="6.28337">
        <ele>237.6</ele>
        <time>2022-07-17T10:18:55Z</time>
      </trkpt>
      <trkpt lat="48.50982" lon="6.28323">
        <ele>237.6</ele>
        <time>2022-07-17T10:19:03Z</time>
      </trkpt>
      <trkpt lat="48.50982" lon="6.28307">
        <ele>237.6</ele>
        <time>2022-07-17T10:19:11Z</time>
      </trkpt>
      <trkpt lat="48.50982" lon="6.28294">
        <ele>237.6</ele>
        <time>2022-07-17T10:19:18Z</time>
      </trkpt>
      <trkpt lat="48.50981" lon="6.28279">
        <ele>237.6</ele>
        <time>2022-07-17T10:19:25Z</time>
      </trkpt>
      <trkpt lat="48.50979" lon="6.28265">
        <ele>237.6</ele>
        <time>2022-07-17T10:19:32Z</time>
      </trkpt>
      <trkpt lat="48.50977" lon="6.28251">
        <ele>237.6</ele>
        <time>2022-07-17T10:19:39Z</time>
      </trkpt>
      <trkpt lat="48.50976" lon="6.28237">
        <ele>237.6</ele>
        <time>2022-07-17T10:19:47Z</time>
      </trkpt>
      <trkpt lat="48.50977" lon="6.28222">
        <ele>237.8</ele>
        <time>2022-07-17T10:19:56Z</time>
      </trkpt>
      <trkpt lat="48.50982" lon="6.28211">
        <ele>237.9</ele>
        <time>2022-07-17T10:20:04Z</time>
      </trkpt>
      <trkpt lat="48.5099" lon="6.28201">
        <ele>237.8</ele>
        <time>2022-07-17T10:20:13Z</time>
      </trkpt>
      <trkpt lat="48.50998" lon="6.28192">
        <ele>237.7</ele>
        <time>2022-07-17T10:20:21Z</time>
      </trkpt>
      <trkpt lat="48.51006" lon="6.28183">
        <ele>237.6</ele>
        <time>2022-07-17T10:20:29Z</time>
      </trkpt>
      <trkpt lat="48.51014" lon="6.28174">
        <ele>237.4</ele>
        <time>2022-07-17T10:20:37Z</time>
      </trkpt>
      <trkpt lat="48.51021" lon="6.28164">
        <ele>237.2</ele>
        <time>2022-07-17T10:20:45Z</time>
      </trkpt>
      <trkpt lat="48.51029" lon="6.28156">
        <ele>237</ele>
        <time>2022-07-17T10:20:52Z</time>
      </trkpt>
      <trkpt lat="48.51038" lon="6.2815">
        <ele>236.9</ele>
        <time>2022-07-17T10:21:00Z</time>
      </trkpt>
      <trkpt lat="48.51047" lon="6.28144">
        <ele>236.8</ele>
        <time>2022-07-17T10:21:08Z</time>
      </trkpt>
      <trkpt lat="48.51056" lon="6.28138">
        <ele>236.8</ele>
        <time>2022-07-17T10:21:16Z</time>
      </trkpt>
      <trkpt lat="48.51065" lon="6.28133">
        <ele>236.8</ele>
        <time>2022-07-17T10:21:24Z</time>
      </trkpt>
      <trkpt lat="48.51074" lon="6.28128">
        <ele>236.8</ele>
        <time>2022-07-17T10:21:31Z</time>
      </trkpt>
      <trkpt lat="48.51084" lon="6.28124">
        <ele>236.8</ele>
        <time>2022-07-17T10:21:40Z</time>
      </trkpt>
      <trkpt lat="48.51093" lon="6.28119">
        <ele>236.9</ele>
        <time>2022-07-17T10:21:50Z</time>
      </trkpt>
      <trkpt lat="48.51102" lon="6.28118">
        <ele>236.9</ele>
        <time>2022-07-17T10:21:57Z</time>
      </trkpt>
      <trkpt lat="48.51112" lon="6.28118">
        <ele>236.9</ele>
        <time>2022-07-17T10:22:05Z</time>
      </trkpt>
      <trkpt lat="48.51122" lon="6.2812">
        <ele>236.9</ele>
        <time>2022-07-17T10:22:13Z</time>
      </trkpt>
      <trkpt lat="48.51132" lon="6.28124">
        <ele>236.9</ele>
        <time>2022-07-17T10:22:21Z</time>
      </trkpt>
      <trkpt lat="48.51141" lon="6.28127">
        <ele>236.9</ele>
        <time>2022-07-17T10:22:29Z</time>
      </trkpt>
      <trkpt lat="48.5115" lon="6.28125">
        <ele>236.9</ele>
        <time>2022-07-17T10:22:37Z</time>
      </trkpt>
      <trkpt lat="48.51159" lon="6.28123">
        <ele>236.9</ele>
        <time>2022-07-17T10:22:45Z</time>
      </trkpt>
      <trkpt lat="48.51168" lon="6.28123">
        <ele>236.9</ele>
        <time>2022-07-17T10:22:52Z</time>
      </trkpt>
      <trkpt lat="48.51177" lon="6.28122">
        <ele>236.9</ele>
        <time>2022-07-17T10:22:59Z</time>
      </trkpt>
      <trkpt lat="48.51187" lon="6.28124">
        <ele>236.9</ele>
        <time>2022-07-17T10:23:07Z</time>
      </trkpt>
      <trkpt lat="48.51196" lon="6.28126">
        <ele>236.8</ele>
        <time>2022-07-17T10:23:15Z</time>
      </trkpt>
      <trkpt lat="48.51206" lon="6.28131">
        <ele>236.8</ele>
        <time>2022-07-17T10:23:23Z</time>
      </trkpt>
      <trkpt lat="48.51215" lon="6.28137">
        <ele>236.8</ele>
        <time>2022-07-17T10:23:31Z</time>
      </trkpt>
      <trkpt lat="48.51223" lon="6.28143">
        <ele>236.8</ele>
        <time>2022-07-17T10:23:38Z</time>
      </trkpt>
      <trkpt lat="48.51231" lon="6.2815">
        <ele>236.8</ele>
        <time>2022-07-17T10:23:45Z</time>
      </trkpt>
      <trkpt lat="48.5124" lon="6.28155">
        <ele>236.8</ele>
        <time>2022-07-17T10:23:52Z</time>
      </trkpt>
      <trkpt lat="48.51249" lon="6.28161">
        <ele>236.8</ele>
        <time>2022-07-17T10:23:59Z</time>
      </trkpt>
      <trkpt lat="48.51258" lon="6.28165">
        <ele>236.8</ele>
        <time>2022-07-17T10:24:06Z</time>
      </trkpt>
      <trkpt lat="48.51267" lon="6.28171">
        <ele>236.8</ele>
        <time>2022-07-17T10:24:14Z</time>
      </trkpt>
      <trkpt lat="48.51276" lon="6.28177">
        <ele>236.8</ele>
        <time>2022-07-17T10:24:22Z</time>
      </trkpt>
      <trkpt lat="48.51285" lon="6.28185">
        <ele>236.8</ele>
        <time>2022-07-17T10:24:30Z</time>
      </trkpt>
      <trkpt lat="48.51292" lon="6.28192">
        <ele>236.8</ele>
        <time>2022-07-17T10:24:37Z</time>
      </trkpt>
      <trkpt lat="48.513" lon="6.282">
        <ele>236.8</ele>
        <time>2022-07-17T10:24:44Z</time>
      </trkpt>
      <trkpt lat="48.51309" lon="6.28208">
        <ele>236.7</ele>
        <time>2022-07-17T10:24:51Z</time>
      </trkpt>
      <trkpt lat="48.51317" lon="6.28217">
        <ele>236.7</ele>
        <time>2022-07-17T10:24:59Z</time>
      </trkpt>
      <trkpt lat="48.51326" lon="6.28226">
        <ele>236.7</ele>
        <time>2022-07-17T10:25:07Z</time>
      </trkpt>
      <trkpt lat="48.51334" lon="6.28235">
        <ele>236.7</ele>
        <time>2022-07-17T10:25:15Z</time>
      </trkpt>
      <trkpt lat="48.51341" lon="6.28243">
        <ele>236.7</ele>
        <time>2022-07-17T10:25:22Z</time>
      </trkpt>
      <trkpt lat="48.51348" lon="6.28252">
        <ele>236.7</ele>
        <time>2022-07-17T10:25:29Z</time>
      </trkpt>
      <trkpt lat="48.51355" lon="6.28262">
        <ele>236.6</ele>
        <time>2022-07-17T10:25:36Z</time>
      </trkpt>
      <trkpt lat="48.51361" lon="6.28273">
        <ele>236.6</ele>
        <time>2022-07-17T10:25:43Z</time>
      </trkpt>
      <trkpt lat="48.51367" lon="6.28283">
        <ele>236.6</ele>
        <time>2022-07-17T10:25:49Z</time>
      </trkpt>
      <trkpt lat="48.51377" lon="6.28286">
        <ele>236.6</ele>
        <time>2022-07-17T10:26:02Z</time>
      </trkpt>
      <trkpt lat="48.51384" lon="6.28279">
        <ele>236.5</ele>
        <time>2022-07-17T10:26:10Z</time>
      </trkpt>
      <trkpt lat="48.51393" lon="6.28272">
        <ele>236.5</ele>
        <time>2022-07-17T10:26:19Z</time>
      </trkpt>
      <trkpt lat="48.51403" lon="6.2827">
        <ele>236.5</ele>
        <time>2022-07-17T10:26:27Z</time>
      </trkpt>
      <trkpt lat="48.51413" lon="6.28269">
        <ele>236.4</ele>
        <time>2022-07-17T10:26:35Z</time>
      </trkpt>
      <trkpt lat="48.51417" lon="6.28269">
        <ele>236.4</ele>
        <time>2022-07-17T10:26:42Z</time>
      </trkpt>
      <trkpt lat="48.51417" lon="6.28268">
        <ele>236.4</ele>
        <time>2022-07-17T10:27:03Z</time>
      </trkpt>
      <trkpt lat="48.51417" lon="6.28268">
        <ele>236.4</ele>
        <time>2022-07-17T10:27:04Z</time>
      </trkpt>
      <trkpt lat="48.51417" lon="6.28268">
        <ele>236.4</ele>
        <time>2022-07-17T10:27:15Z</time>
      </trkpt>
      <trkpt lat="48.51427" lon="6.28267">
        <ele>236.3</ele>
        <time>2022-07-17T10:27:26Z</time>
      </trkpt>
      <trkpt lat="48.51437" lon="6.28263">
        <ele>236.2</ele>
        <time>2022-07-17T10:27:35Z</time>
      </trkpt>
      <trkpt lat="48.51445" lon="6.28259">
        <ele>236.2</ele>
        <time>2022-07-17T10:27:44Z</time>
      </trkpt>
      <trkpt lat="48.51454" lon="6.28252">
        <ele>236.1</ele>
        <time>2022-07-17T10:27:53Z</time>
      </trkpt>
      <trkpt lat="48.51463" lon="6.28246">
        <ele>236</ele>
        <time>2022-07-17T10:28:01Z</time>
      </trkpt>
      <trkpt lat="48.51472" lon="6.28238">
        <ele>236</ele>
        <time>2022-07-17T10:28:09Z</time>
      </trkpt>
      <trkpt lat="48.5148" lon="6.28232">
        <ele>235.9</ele>
        <time>2022-07-17T10:28:18Z</time>
      </trkpt>
      <trkpt lat="48.51487" lon="6.28223">
        <ele>235.9</ele>
        <time>2022-07-17T10:28:27Z</time>
      </trkpt>
      <trkpt lat="48.51493" lon="6.28213">
        <ele>236</ele>
        <time>2022-07-17T10:28:35Z</time>
      </trkpt>
      <trkpt lat="48.51499" lon="6.28202">
        <ele>236</ele>
        <time>2022-07-17T10:28:43Z</time>
      </trkpt>
      <trkpt lat="48.51507" lon="6.28192">
        <ele>236</ele>
        <time>2022-07-17T10:28:52Z</time>
      </trkpt>
      <trkpt lat="48.51513" lon="6.28182">
        <ele>236</ele>
        <time>2022-07-17T10:29:00Z</time>
      </trkpt>
      <trkpt lat="48.51518" lon="6.2817">
        <ele>236</ele>
        <time>2022-07-17T10:29:08Z</time>
      </trkpt>
      <trkpt lat="48.51523" lon="6.28157">
        <ele>236</ele>
        <time>2022-07-17T10:29:16Z</time>
      </trkpt>
      <trkpt lat="48.51527" lon="6.28145">
        <ele>235.9</ele>
        <time>2022-07-17T10:29:24Z</time>
      </trkpt>
      <trkpt lat="48.51532" lon="6.28131">
        <ele>236</ele>
        <time>2022-07-17T10:29:33Z</time>
      </trkpt>
      <trkpt lat="48.51535" lon="6.28117">
        <ele>236</ele>
        <time>2022-07-17T10:29:42Z</time>
      </trkpt>
      <trkpt lat="48.51536" lon="6.28103">
        <ele>236</ele>
        <time>2022-07-17T10:29:50Z</time>
      </trkpt>
      <trkpt lat="48.51537" lon="6.28088">
        <ele>236.1</ele>
        <time>2022-07-17T10:29:58Z</time>
      </trkpt>
      <trkpt lat="48.51539" lon="6.28074">
        <ele>236.1</ele>
        <time>2022-07-17T10:30:06Z</time>
      </trkpt>
      <trkpt lat="48.5154" lon="6.28061">
        <ele>236.1</ele>
        <time>2022-07-17T10:30:14Z</time>
      </trkpt>
      <trkpt lat="48.51539" lon="6.28045">
        <ele>236.1</ele>
        <time>2022-07-17T10:30:22Z</time>
      </trkpt>
      <trkpt lat="48.5154" lon="6.28031">
        <ele>236.1</ele>
        <time>2022-07-17T10:30:30Z</time>
      </trkpt>
      <trkpt lat="48.5154" lon="6.28017">
        <ele>236.1</ele>
        <time>2022-07-17T10:30:38Z</time>
      </trkpt>
      <trkpt lat="48.51541" lon="6.28002">
        <ele>236.1</ele>
        <time>2022-07-17T10:30:47Z</time>
      </trkpt>
      <trkpt lat="48.51541" lon="6.27988">
        <ele>236.1</ele>
        <time>2022-07-17T10:30:54Z</time>
      </trkpt>
      <trkpt lat="48.51542" lon="6.27974">
        <ele>236.1</ele>
        <time>2022-07-17T10:31:02Z</time>
      </trkpt>
      <trkpt lat="48.51542" lon="6.27959">
        <ele>236.1</ele>
        <time>2022-07-17T10:31:10Z</time>
      </trkpt>
      <trkpt lat="48.51544" lon="6.27945">
        <ele>236.1</ele>
        <time>2022-07-17T10:31:18Z</time>
      </trkpt>
      <trkpt lat="48.51544" lon="6.27931">
        <ele>236</ele>
        <time>2022-07-17T10:31:26Z</time>
      </trkpt>
      <trkpt lat="48.51541" lon="6.27918">
        <ele>236</ele>
        <time>2022-07-17T10:31:34Z</time>
      </trkpt>
      <trkpt lat="48.51541" lon="6.27904">
        <ele>236</ele>
        <time>2022-07-17T10:31:42Z</time>
      </trkpt>
      <trkpt lat="48.5154" lon="6.27891">
        <ele>236</ele>
        <time>2022-07-17T10:31:50Z</time>
      </trkpt>
      <trkpt lat="48.51537" lon="6.27877">
        <ele>236.1</ele>
        <time>2022-07-17T10:31:58Z</time>
      </trkpt>
      <trkpt lat="48.51532" lon="6.27864">
        <ele>236.1</ele>
        <time>2022-07-17T10:32:07Z</time>
      </trkpt>
      <trkpt lat="48.51527" lon="6.27851">
        <ele>236.2</ele>
        <time>2022-07-17T10:32:16Z</time>
      </trkpt>
      <trkpt lat="48.51523" lon="6.27838">
        <ele>236.2</ele>
        <time>2022-07-17T10:32:24Z</time>
      </trkpt>
      <trkpt lat="48.51521" lon="6.27823">
        <ele>236.2</ele>
        <time>2022-07-17T10:32:33Z</time>
      </trkpt>
      <trkpt lat="48.51521" lon="6.27809">
        <ele>236.2</ele>
        <time>2022-07-17T10:32:44Z</time>
      </trkpt>
      <trkpt lat="48.51525" lon="6.27796">
        <ele>236.2</ele>
        <time>2022-07-17T10:32:54Z</time>
      </trkpt>
      <trkpt lat="48.51527" lon="6.27783">
        <ele>236.1</ele>
        <time>2022-07-17T10:33:03Z</time>
      </trkpt>
      <trkpt lat="48.51528" lon="6.27769">
        <ele>236</ele>
        <time>2022-07-17T10:33:10Z</time>
      </trkpt>
      <trkpt lat="48.51529" lon="6.27755">
        <ele>235.9</ele>
        <time>2022-07-17T10:33:18Z</time>
      </trkpt>
      <trkpt lat="48.51534" lon="6.27742">
        <ele>235.9</ele>
        <time>2022-07-17T10:33:26Z</time>
      </trkpt>
      <trkpt lat="48.51539" lon="6.27729">
        <ele>235.9</ele>
        <time>2022-07-17T10:33:34Z</time>
      </trkpt>
      <trkpt lat="48.51543" lon="6.27716">
        <ele>235.9</ele>
        <time>2022-07-17T10:33:42Z</time>
      </trkpt>
      <trkpt lat="48.51546" lon="6.27703">
        <ele>235.9</ele>
        <time>2022-07-17T10:33:50Z</time>
      </trkpt>
      <trkpt lat="48.51553" lon="6.27693">
        <ele>235.9</ele>
        <time>2022-07-17T10:33:59Z</time>
      </trkpt>
      <trkpt lat="48.51561" lon="6.27685">
        <ele>235.9</ele>
        <time>2022-07-17T10:34:06Z</time>
      </trkpt>
      <trkpt lat="48.5157" lon="6.27678">
        <ele>235.9</ele>
        <time>2022-07-17T10:34:13Z</time>
      </trkpt>
      <trkpt lat="48.51578" lon="6.27673">
        <ele>236</ele>
        <time>2022-07-17T10:34:21Z</time>
      </trkpt>
      <trkpt lat="48.51587" lon="6.27669">
        <ele>236</ele>
        <time>2022-07-17T10:34:30Z</time>
      </trkpt>
      <trkpt lat="48.51596" lon="6.27664">
        <ele>236</ele>
        <time>2022-07-17T10:34:39Z</time>
      </trkpt>
      <trkpt lat="48.51605" lon="6.27661">
        <ele>236</ele>
        <time>2022-07-17T10:34:48Z</time>
      </trkpt>
      <trkpt lat="48.51615" lon="6.27658">
        <ele>235.9</ele>
        <time>2022-07-17T10:34:58Z</time>
      </trkpt>
      <trkpt lat="48.51615" lon="6.27658">
        <ele>235.9</ele>
        <time>2022-07-17T10:35:00Z</time>
      </trkpt>
      <trkpt lat="48.51615" lon="6.27658">
        <ele>235.9</ele>
        <time>2022-07-17T10:35:01Z</time>
      </trkpt>
      <trkpt lat="48.51626" lon="6.27662">
        <ele>235.9</ele>
        <time>2022-07-17T10:35:08Z</time>
      </trkpt>
      <trkpt lat="48.51636" lon="6.27663">
        <ele>235.9</ele>
        <time>2022-07-17T10:35:15Z</time>
      </trkpt>
      <trkpt lat="48.51645" lon="6.27667">
        <ele>235.8</ele>
        <time>2022-07-17T10:35:25Z</time>
      </trkpt>
      <trkpt lat="48.51654" lon="6.27673">
        <ele>235.8</ele>
        <time>2022-07-17T10:35:34Z</time>
      </trkpt>
      <trkpt lat="48.51662" lon="6.27683">
        <ele>235.8</ele>
        <time>2022-07-17T10:35:40Z</time>
      </trkpt>
      <trkpt lat="48.51668" lon="6.27692">
        <ele>235.9</ele>
        <time>2022-07-17T10:35:45Z</time>
      </trkpt>
      <trkpt lat="48.51675" lon="6.27701">
        <ele>235.9</ele>
        <time>2022-07-17T10:35:51Z</time>
      </trkpt>
      <trkpt lat="48.51682" lon="6.27713">
        <ele>235.9</ele>
        <time>2022-07-17T10:35:58Z</time>
      </trkpt>
      <trkpt lat="48.51688" lon="6.27724">
        <ele>235.8</ele>
        <time>2022-07-17T10:36:05Z</time>
      </trkpt>
      <trkpt lat="48.51693" lon="6.27736">
        <ele>235.9</ele>
        <time>2022-07-17T10:36:13Z</time>
      </trkpt>
      <trkpt lat="48.517" lon="6.27747">
        <ele>235.9</ele>
        <time>2022-07-17T10:36:21Z</time>
      </trkpt>
      <trkpt lat="48.51706" lon="6.27757">
        <ele>235.9</ele>
        <time>2022-07-17T10:36:29Z</time>
      </trkpt>
      <trkpt lat="48.51711" lon="6.27769">
        <ele>235.9</ele>
        <time>2022-07-17T10:36:37Z</time>
      </trkpt>
      <trkpt lat="48.51716" lon="6.2778">
        <ele>236</ele>
        <time>2022-07-17T10:36:44Z</time>
      </trkpt>
      <trkpt lat="48.51722" lon="6.27792">
        <ele>236</ele>
        <time>2022-07-17T10:36:52Z</time>
      </trkpt>
      <trkpt lat="48.51727" lon="6.27804">
        <ele>236</ele>
        <time>2022-07-17T10:37:00Z</time>
      </trkpt>
      <trkpt lat="48.51733" lon="6.27815">
        <ele>236</ele>
        <time>2022-07-17T10:37:08Z</time>
      </trkpt>
      <trkpt lat="48.51738" lon="6.27828">
        <ele>236</ele>
        <time>2022-07-17T10:37:16Z</time>
      </trkpt>
      <trkpt lat="48.51744" lon="6.27838">
        <ele>236</ele>
        <time>2022-07-17T10:37:23Z</time>
      </trkpt>
      <trkpt lat="48.5175" lon="6.27851">
        <ele>235.9</ele>
        <time>2022-07-17T10:37:31Z</time>
      </trkpt>
      <trkpt lat="48.51756" lon="6.27861">
        <ele>235.9</ele>
        <time>2022-07-17T10:37:38Z</time>
      </trkpt>
      <trkpt lat="48.51761" lon="6.27873">
        <ele>235.9</ele>
        <time>2022-07-17T10:37:46Z</time>
      </trkpt>
      <trkpt lat="48.51767" lon="6.27885">
        <ele>235.9</ele>
        <time>2022-07-17T10:37:54Z</time>
      </trkpt>
      <trkpt lat="48.51772" lon="6.27896">
        <ele>235.8</ele>
        <time>2022-07-17T10:38:02Z</time>
      </trkpt>
      <trkpt lat="48.51775" lon="6.2791">
        <ele>235.8</ele>
        <time>2022-07-17T10:38:10Z</time>
      </trkpt>
      <trkpt lat="48.5178" lon="6.27922">
        <ele>235.8</ele>
        <time>2022-07-17T10:38:18Z</time>
      </trkpt>
      <trkpt lat="48.51787" lon="6.27932">
        <ele>235.8</ele>
        <time>2022-07-17T10:38:26Z</time>
      </trkpt>
      <trkpt lat="48.51794" lon="6.27943">
        <ele>235.8</ele>
        <time>2022-07-17T10:38:35Z</time>
      </trkpt>
      <trkpt lat="48.51799" lon="6.27954">
        <ele>235.8</ele>
        <time>2022-07-17T10:38:43Z</time>
      </trkpt>
      <trkpt lat="48.51805" lon="6.27966">
        <ele>235.8</ele>
        <time>2022-07-17T10:38:50Z</time>
      </trkpt>
      <trkpt lat="48.5181" lon="6.27978">
        <ele>235.8</ele>
        <time>2022-07-17T10:38:58Z</time>
      </trkpt>
      <trkpt lat="48.51815" lon="6.2799">
        <ele>235.8</ele>
        <time>2022-07-17T10:39:05Z</time>
      </trkpt>
      <trkpt lat="48.5182" lon="6.28002">
        <ele>235.8</ele>
        <time>2022-07-17T10:39:12Z</time>
      </trkpt>
      <trkpt lat="48.51824" lon="6.28015">
        <ele>235.9</ele>
        <time>2022-07-17T10:39:20Z</time>
      </trkpt>
      <trkpt lat="48.51829" lon="6.28026">
        <ele>235.9</ele>
        <time>2022-07-17T10:39:27Z</time>
      </trkpt>
      <trkpt lat="48.51834" lon="6.28039">
        <ele>235.9</ele>
        <time>2022-07-17T10:39:35Z</time>
      </trkpt>
      <trkpt lat="48.51839" lon="6.28051">
        <ele>235.9</ele>
        <time>2022-07-17T10:39:44Z</time>
      </trkpt>
      <trkpt lat="48.51844" lon="6.28064">
        <ele>235.9</ele>
        <time>2022-07-17T10:39:53Z</time>
      </trkpt>
      <trkpt lat="48.51851" lon="6.28076">
        <ele>235.8</ele>
        <time>2022-07-17T10:40:01Z</time>
      </trkpt>
      <trkpt lat="48.51857" lon="6.28088">
        <ele>235.7</ele>
        <time>2022-07-17T10:40:09Z</time>
      </trkpt>
      <trkpt lat="48.51864" lon="6.28099">
        <ele>235.6</ele>
        <time>2022-07-17T10:40:17Z</time>
      </trkpt>
      <trkpt lat="48.5187" lon="6.28111">
        <ele>235.4</ele>
        <time>2022-07-17T10:40:26Z</time>
      </trkpt>
      <trkpt lat="48.51878" lon="6.28118">
        <ele>235.1</ele>
        <time>2022-07-17T10:40:33Z</time>
      </trkpt>
      <trkpt lat="48.51886" lon="6.28126">
        <ele>234.8</ele>
        <time>2022-07-17T10:40:41Z</time>
      </trkpt>
      <trkpt lat="48.51893" lon="6.28138">
        <ele>234.6</ele>
        <time>2022-07-17T10:40:49Z</time>
      </trkpt>
      <trkpt lat="48.519" lon="6.2815">
        <ele>234.5</ele>
        <time>2022-07-17T10:40:58Z</time>
      </trkpt>
      <trkpt lat="48.51904" lon="6.28162">
        <ele>234.6</ele>
        <time>2022-07-17T10:41:07Z</time>
      </trkpt>
      <trkpt lat="48.51909" lon="6.28174">
        <ele>234.8</ele>
        <time>2022-07-17T10:41:15Z</time>
      </trkpt>
      <trkpt lat="48.51914" lon="6.28187">
        <ele>234.9</ele>
        <time>2022-07-17T10:41:23Z</time>
      </trkpt>
      <trkpt lat="48.51918" lon="6.282">
        <ele>235.1</ele>
        <time>2022-07-17T10:41:31Z</time>
      </trkpt>
      <trkpt lat="48.51921" lon="6.28213">
        <ele>235.3</ele>
        <time>2022-07-17T10:41:40Z</time>
      </trkpt>
      <trkpt lat="48.51925" lon="6.28226">
        <ele>235.4</ele>
        <time>2022-07-17T10:41:48Z</time>
      </trkpt>
      <trkpt lat="48.51929" lon="6.28238">
        <ele>235.4</ele>
        <time>2022-07-17T10:41:55Z</time>
      </trkpt>
      <trkpt lat="48.51935" lon="6.2825">
        <ele>235.5</ele>
        <time>2022-07-17T10:42:03Z</time>
      </trkpt>
      <trkpt lat="48.5194" lon="6.28261">
        <ele>235.5</ele>
        <time>2022-07-17T10:42:11Z</time>
      </trkpt>
      <trkpt lat="48.51947" lon="6.28273">
        <ele>235.5</ele>
        <time>2022-07-17T10:42:20Z</time>
      </trkpt>
      <trkpt lat="48.51953" lon="6.28285">
        <ele>235.5</ele>
        <time>2022-07-17T10:42:27Z</time>
      </trkpt>
      <trkpt lat="48.51958" lon="6.28297">
        <ele>235.5</ele>
        <time>2022-07-17T10:42:35Z</time>
      </trkpt>
      <trkpt lat="48.51964" lon="6.2831">
        <ele>235.4</ele>
        <time>2022-07-17T10:42:43Z</time>
      </trkpt>
      <trkpt lat="48.5197" lon="6.28322">
        <ele>235.4</ele>
        <time>2022-07-17T10:42:51Z</time>
      </trkpt>
      <trkpt lat="48.51975" lon="6.28334">
        <ele>235.4</ele>
        <time>2022-07-17T10:42:59Z</time>
      </trkpt>
      <trkpt lat="48.51981" lon="6.28344">
        <ele>235.4</ele>
        <time>2022-07-17T10:43:06Z</time>
      </trkpt>
      <trkpt lat="48.51986" lon="6.28356">
        <ele>235.5</ele>
        <time>2022-07-17T10:43:14Z</time>
      </trkpt>
      <trkpt lat="48.51989" lon="6.28369">
        <ele>235.5</ele>
        <time>2022-07-17T10:43:23Z</time>
      </trkpt>
      <trkpt lat="48.51996" lon="6.28381">
        <ele>235.5</ele>
        <time>2022-07-17T10:43:32Z</time>
      </trkpt>
      <trkpt lat="48.52" lon="6.28393">
        <ele>235.4</ele>
        <time>2022-07-17T10:43:40Z</time>
      </trkpt>
      <trkpt lat="48.52002" lon="6.28407">
        <ele>235.4</ele>
        <time>2022-07-17T10:43:48Z</time>
      </trkpt>
      <trkpt lat="48.52004" lon="6.28421">
        <ele>235.4</ele>
        <time>2022-07-17T10:43:56Z</time>
      </trkpt>
      <trkpt lat="48.52004" lon="6.28436">
        <ele>235.3</ele>
        <time>2022-07-17T10:44:04Z</time>
      </trkpt>
      <trkpt lat="48.52006" lon="6.2845">
        <ele>235.2</ele>
        <time>2022-07-17T10:44:11Z</time>
      </trkpt>
      <trkpt lat="48.52011" lon="6.28462">
        <ele>235.2</ele>
        <time>2022-07-17T10:44:18Z</time>
      </trkpt>
      <trkpt lat="48.5202" lon="6.28463">
        <ele>235.1</ele>
        <time>2022-07-17T10:44:25Z</time>
      </trkpt>
      <trkpt lat="48.52029" lon="6.28459">
        <ele>235</ele>
        <time>2022-07-17T10:44:32Z</time>
      </trkpt>
      <trkpt lat="48.52037" lon="6.28449">
        <ele>235</ele>
        <time>2022-07-17T10:44:41Z</time>
      </trkpt>
      <trkpt lat="48.52046" lon="6.28444">
        <ele>234.9</ele>
        <time>2022-07-17T10:44:50Z</time>
      </trkpt>
      <trkpt lat="48.52054" lon="6.28438">
        <ele>234.8</ele>
        <time>2022-07-17T10:44:58Z</time>
      </trkpt>
      <trkpt lat="48.52063" lon="6.28431">
        <ele>234.9</ele>
        <time>2022-07-17T10:45:08Z</time>
      </trkpt>
      <trkpt lat="48.52065" lon="6.28429">
        <ele>235</ele>
        <time>2022-07-17T10:45:13Z</time>
      </trkpt>
      <trkpt lat="48.52065" lon="6.28429">
        <ele>235</ele>
        <time>2022-07-17T10:45:14Z</time>
      </trkpt>
      <trkpt lat="48.52065" lon="6.28429">
        <ele>235</ele>
        <time>2022-07-17T10:45:17Z</time>
      </trkpt>
      <trkpt lat="48.52065" lon="6.28429">
        <ele>235</ele>
        <time>2022-07-17T10:45:41Z</time>
      </trkpt>
      <trkpt lat="48.52065" lon="6.28429">
        <ele>235</ele>
        <time>2022-07-17T10:45:42Z</time>
      </trkpt>
      <trkpt lat="48.52066" lon="6.28429">
        <ele>235</ele>
        <time>2022-07-17T10:45:49Z</time>
      </trkpt>
      <trkpt lat="48.52066" lon="6.28428">
        <ele>235</ele>
        <time>2022-07-17T10:45:52Z</time>
      </trkpt>
      <trkpt lat="48.52066" lon="6.28428">
        <ele>235</ele>
        <time>2022-07-17T10:46:06Z</time>
      </trkpt>
      <trkpt lat="48.52066" lon="6.28428">
        <ele>235</ele>
        <time>2022-07-17T10:46:07Z</time>
      </trkpt>
      <trkpt lat="48.52066" lon="6.28428">
        <ele>235</ele>
        <time>2022-07-17T10:46:30Z</time>
      </trkpt>
      <trkpt lat="48.52066" lon="6.28428">
        <ele>235</ele>
        <time>2022-07-17T10:46:31Z</time>
      </trkpt>
      <trkpt lat="48.52066" lon="6.28428">
        <ele>235</ele>
        <time>2022-07-17T10:46:37Z</time>
      </trkpt>
      <trkpt lat="48.52066" lon="6.28428">
        <ele>235</ele>
        <time>2022-07-17T10:46:38Z</time>
      </trkpt>
      <trkpt lat="48.52066" lon="6.28427">
        <ele>235</ele>
        <time>2022-07-17T10:46:41Z</time>
      </trkpt>
      <trkpt lat="48.52074" lon="6.2842">
        <ele>235</ele>
        <time>2022-07-17T10:46:49Z</time>
      </trkpt>
      <trkpt lat="48.52081" lon="6.28411">
        <ele>235.1</ele>
        <time>2022-07-17T10:47:03Z</time>
      </trkpt>
      <trkpt lat="48.52089" lon="6.28403">
        <ele>235.1</ele>
        <time>2022-07-17T10:47:11Z</time>
      </trkpt>
      <trkpt lat="48.52097" lon="6.28394">
        <ele>235.1</ele>
        <time>2022-07-17T10:47:21Z</time>
      </trkpt>
      <trkpt lat="48.52105" lon="6.28385">
        <ele>235.1</ele>
        <time>2022-07-17T10:47:29Z</time>
      </trkpt>
      <trkpt lat="48.52112" lon="6.28377">
        <ele>235</ele>
        <time>2022-07-17T10:47:38Z</time>
      </trkpt>
      <trkpt lat="48.5212" lon="6.2837">
        <ele>235</ele>
        <time>2022-07-17T10:47:47Z</time>
      </trkpt>
      <trkpt lat="48.52128" lon="6.28363">
        <ele>235</ele>
        <time>2022-07-17T10:47:54Z</time>
      </trkpt>
      <trkpt lat="48.52137" lon="6.28355">
        <ele>235</ele>
        <time>2022-07-17T10:48:02Z</time>
      </trkpt>
      <trkpt lat="48.52145" lon="6.28347">
        <ele>234.9</ele>
        <time>2022-07-17T10:48:10Z</time>
      </trkpt>
      <trkpt lat="48.52153" lon="6.2834">
        <ele>234.9</ele>
        <time>2022-07-17T10:48:19Z</time>
      </trkpt>
      <trkpt lat="48.52161" lon="6.28331">
        <ele>234.9</ele>
        <time>2022-07-17T10:48:28Z</time>
      </trkpt>
      <trkpt lat="48.52169" lon="6.28324">
        <ele>234.9</ele>
        <time>2022-07-17T10:48:37Z</time>
      </trkpt>
      <trkpt lat="48.52177" lon="6.28316">
        <ele>234.9</ele>
        <time>2022-07-17T10:48:45Z</time>
      </trkpt>
      <trkpt lat="48.52185" lon="6.28307">
        <ele>234.9</ele>
        <time>2022-07-17T10:48:53Z</time>
      </trkpt>
      <trkpt lat="48.52191" lon="6.28296">
        <ele>234.9</ele>
        <time>2022-07-17T10:49:01Z</time>
      </trkpt>
      <trkpt lat="48.522" lon="6.28288">
        <ele>234.9</ele>
        <time>2022-07-17T10:49:08Z</time>
      </trkpt>
      <trkpt lat="48.52204" lon="6.28275">
        <ele>234.9</ele>
        <time>2022-07-17T10:49:15Z</time>
      </trkpt>
      <trkpt lat="48.52209" lon="6.28265">
        <ele>234.9</ele>
        <time>2022-07-17T10:49:22Z</time>
      </trkpt>
      <trkpt lat="48.52215" lon="6.28254">
        <ele>234.9</ele>
        <time>2022-07-17T10:49:30Z</time>
      </trkpt>
      <trkpt lat="48.52218" lon="6.2824">
        <ele>234.9</ele>
        <time>2022-07-17T10:49:38Z</time>
      </trkpt>
      <trkpt lat="48.52216" lon="6.28227">
        <ele>235.1</ele>
        <time>2022-07-17T10:49:46Z</time>
      </trkpt>
      <trkpt lat="48.52211" lon="6.28214">
        <ele>235.4</ele>
        <time>2022-07-17T10:49:53Z</time>
      </trkpt>
      <trkpt lat="48.52211" lon="6.282">
        <ele>235.7</ele>
        <time>2022-07-17T10:50:02Z</time>
      </trkpt>
      <trkpt lat="48.52209" lon="6.28186">
        <ele>236.1</ele>
        <time>2022-07-17T10:50:11Z</time>
      </trkpt>
      <trkpt lat="48.52211" lon="6.28173">
        <ele>236.3</ele>
        <time>2022-07-17T10:50:19Z</time>
      </trkpt>
      <trkpt lat="48.5221" lon="6.28157">
        <ele>236.4</ele>
        <time>2022-07-17T10:50:27Z</time>
      </trkpt>
      <trkpt lat="48.5221" lon="6.28142">
        <ele>236.6</ele>
        <time>2022-07-17T10:50:34Z</time>
      </trkpt>
      <trkpt lat="48.52211" lon="6.28129">
        <ele>236.7</ele>
        <time>2022-07-17T10:50:42Z</time>
      </trkpt>
      <trkpt lat="48.5221" lon="6.28114">
        <ele>236.8</ele>
        <time>2022-07-17T10:50:50Z</time>
      </trkpt>
      <trkpt lat="48.52208" lon="6.28101">
        <ele>236.8</ele>
        <time>2022-07-17T10:50:57Z</time>
      </trkpt>
      <trkpt lat="48.52209" lon="6.28086">
        <ele>236.9</ele>
        <time>2022-07-17T10:51:06Z</time>
      </trkpt>
      <trkpt lat="48.5221" lon="6.28071">
        <ele>236.9</ele>
        <time>2022-07-17T10:51:13Z</time>
      </trkpt>
      <trkpt lat="48.5221" lon="6.28054">
        <ele>236.9</ele>
        <time>2022-07-17T10:51:20Z</time>
      </trkpt>
      <trkpt lat="48.52206" lon="6.28041">
        <ele>236.9</ele>
        <time>2022-07-17T10:51:28Z</time>
      </trkpt>
      <trkpt lat="48.52201" lon="6.28028">
        <ele>236.9</ele>
        <time>2022-07-17T10:51:36Z</time>
      </trkpt>
      <trkpt lat="48.52196" lon="6.28014">
        <ele>237</ele>
        <time>2022-07-17T10:51:44Z</time>
      </trkpt>
      <trkpt lat="48.52195" lon="6.28">
        <ele>237</ele>
        <time>2022-07-17T10:51:51Z</time>
      </trkpt>
      <trkpt lat="48.522" lon="6.27987">
        <ele>237</ele>
        <time>2022-07-17T10:51:59Z</time>
      </trkpt>
      <trkpt lat="48.52206" lon="6.27976">
        <ele>237.1</ele>
        <time>2022-07-17T10:52:06Z</time>
      </trkpt>
      <trkpt lat="48.52213" lon="6.27967">
        <ele>237.2</ele>
        <time>2022-07-17T10:52:13Z</time>
      </trkpt>
      <trkpt lat="48.52219" lon="6.27955">
        <ele>237.3</ele>
        <time>2022-07-17T10:52:21Z</time>
      </trkpt>
      <trkpt lat="48.52225" lon="6.27943">
        <ele>237.4</ele>
        <time>2022-07-17T10:52:28Z</time>
      </trkpt>
      <trkpt lat="48.52233" lon="6.27933">
        <ele>237.4</ele>
        <time>2022-07-17T10:52:36Z</time>
      </trkpt>
      <trkpt lat="48.52238" lon="6.27922">
        <ele>237.4</ele>
        <time>2022-07-17T10:52:43Z</time>
      </trkpt>
      <trkpt lat="48.52244" lon="6.27911">
        <ele>237.2</ele>
        <time>2022-07-17T10:52:51Z</time>
      </trkpt>
      <trkpt lat="48.52248" lon="6.27898">
        <ele>237.1</ele>
        <time>2022-07-17T10:52:59Z</time>
      </trkpt>
      <trkpt lat="48.52252" lon="6.27885">
        <ele>236.9</ele>
        <time>2022-07-17T10:53:06Z</time>
      </trkpt>
      <trkpt lat="48.52256" lon="6.27872">
        <ele>236.8</ele>
        <time>2022-07-17T10:53:13Z</time>
      </trkpt>
      <trkpt lat="48.52259" lon="6.27859">
        <ele>236.6</ele>
        <time>2022-07-17T10:53:20Z</time>
      </trkpt>
      <trkpt lat="48.52263" lon="6.27845">
        <ele>236.4</ele>
        <time>2022-07-17T10:53:28Z</time>
      </trkpt>
      <trkpt lat="48.52267" lon="6.27833">
        <ele>236.1</ele>
        <time>2022-07-17T10:53:35Z</time>
      </trkpt>
      <trkpt lat="48.52271" lon="6.2782">
        <ele>236</ele>
        <time>2022-07-17T10:53:42Z</time>
      </trkpt>
      <trkpt lat="48.52276" lon="6.27807">
        <ele>235.8</ele>
        <time>2022-07-17T10:53:50Z</time>
      </trkpt>
      <trkpt lat="48.52281" lon="6.27795">
        <ele>235.7</ele>
        <time>2022-07-17T10:53:57Z</time>
      </trkpt>
      <trkpt lat="48.52285" lon="6.27782">
        <ele>235.7</ele>
        <time>2022-07-17T10:54:05Z</time>
      </trkpt>
      <trkpt lat="48.5229" lon="6.27771">
        <ele>235.7</ele>
        <time>2022-07-17T10:54:12Z</time>
      </trkpt>
      <trkpt lat="48.52294" lon="6.27758">
        <ele>235.7</ele>
        <time>2022-07-17T10:54:20Z</time>
      </trkpt>
      <trkpt lat="48.52297" lon="6.27745">
        <ele>235.8</ele>
        <time>2022-07-17T10:54:28Z</time>
      </trkpt>
      <trkpt lat="48.52298" lon="6.27731">
        <ele>235.8</ele>
        <time>2022-07-17T10:54:38Z</time>
      </trkpt>
      <trkpt lat="48.52292" lon="6.27719">
        <ele>235.7</ele>
        <time>2022-07-17T10:54:46Z</time>
      </trkpt>
      <trkpt lat="48.52288" lon="6.27705">
        <ele>235.7</ele>
        <time>2022-07-17T10:54:54Z</time>
      </trkpt>
      <trkpt lat="48.52286" lon="6.27692">
        <ele>235.7</ele>
        <time>2022-07-17T10:55:03Z</time>
      </trkpt>
      <trkpt lat="48.52286" lon="6.2769">
        <ele>235.7</ele>
        <time>2022-07-17T10:55:07Z</time>
      </trkpt>
      <trkpt lat="48.52287" lon="6.27689">
        <ele>235.7</ele>
        <time>2022-07-17T10:55:13Z</time>
      </trkpt>
      <trkpt lat="48.52287" lon="6.27689">
        <ele>235.7</ele>
        <time>2022-07-17T10:55:15Z</time>
      </trkpt>
      <trkpt lat="48.52287" lon="6.27688">
        <ele>235.7</ele>
        <time>2022-07-17T10:55:17Z</time>
      </trkpt>
      <trkpt lat="48.52286" lon="6.27687">
        <ele>235.7</ele>
        <time>2022-07-17T10:55:21Z</time>
      </trkpt>
      <trkpt lat="48.52286" lon="6.27687">
        <ele>235.7</ele>
        <time>2022-07-17T10:55:23Z</time>
      </trkpt>
      <trkpt lat="48.52284" lon="6.27686">
        <ele>235.7</ele>
        <time>2022-07-17T10:55:26Z</time>
      </trkpt>
      <trkpt lat="48.52284" lon="6.27686">
        <ele>235.7</ele>
        <time>2022-07-17T10:55:29Z</time>
      </trkpt>
      <trkpt lat="48.52284" lon="6.27686">
        <ele>235.7</ele>
        <time>2022-07-17T10:55:30Z</time>
      </trkpt>
      <trkpt lat="48.52284" lon="6.27686">
        <ele>235.7</ele>
        <time>2022-07-17T10:55:32Z</time>
      </trkpt>
      <trkpt lat="48.52285" lon="6.27683">
        <ele>235.7</ele>
        <time>2022-07-17T10:55:40Z</time>
      </trkpt>
      <trkpt lat="48.52285" lon="6.27683">
        <ele>235.7</ele>
        <time>2022-07-17T10:55:41Z</time>
      </trkpt>
      <trkpt lat="48.52286" lon="6.27685">
        <ele>235.8</ele>
        <time>2022-07-17T10:55:48Z</time>
      </trkpt>
      <trkpt lat="48.52286" lon="6.27685">
        <ele>235.8</ele>
        <time>2022-07-17T10:55:57Z</time>
      </trkpt>
      <trkpt lat="48.52286" lon="6.27685">
        <ele>235.8</ele>
        <time>2022-07-17T10:55:58Z</time>
      </trkpt>
      <trkpt lat="48.52286" lon="6.27685">
        <ele>235.8</ele>
        <time>2022-07-17T10:56:03Z</time>
      </trkpt>
      <trkpt lat="48.52286" lon="6.27685">
        <ele>235.8</ele>
        <time>2022-07-17T10:56:05Z</time>
      </trkpt>
      <trkpt lat="48.52286" lon="6.27685">
        <ele>235.8</ele>
        <time>2022-07-17T10:56:13Z</time>
      </trkpt>
      <trkpt lat="48.52286" lon="6.27685">
        <ele>235.8</ele>
        <time>2022-07-17T10:56:14Z</time>
      </trkpt>
      <trkpt lat="48.52286" lon="6.27684">
        <ele>235.8</ele>
        <time>2022-07-17T10:56:16Z</time>
      </trkpt>
      <trkpt lat="48.52288" lon="6.27671">
        <ele>235.9</ele>
        <time>2022-07-17T10:56:28Z</time>
      </trkpt>
      <trkpt lat="48.52296" lon="6.27664">
        <ele>236</ele>
        <time>2022-07-17T10:56:36Z</time>
      </trkpt>
      <trkpt lat="48.52306" lon="6.27663">
        <ele>236</ele>
        <time>2022-07-17T10:56:44Z</time>
      </trkpt>
      <trkpt lat="48.52315" lon="6.27661">
        <ele>236</ele>
        <time>2022-07-17T10:56:52Z</time>
      </trkpt>
      <trkpt lat="48.52325" lon="6.27657">
        <ele>236</ele>
        <time>2022-07-17T10:57:05Z</time>
      </trkpt>
      <trkpt lat="48.52334" lon="6.27656">
        <ele>235.9</ele>
        <time>2022-07-17T10:57:11Z</time>
      </trkpt>
      <trkpt lat="48.52343" lon="6.27655">
        <ele>235.8</ele>
        <time>2022-07-17T10:57:17Z</time>
      </trkpt>
      <trkpt lat="48.52353" lon="6.27657">
        <ele>235.7</ele>
        <time>2022-07-17T10:57:23Z</time>
      </trkpt>
      <trkpt lat="48.52362" lon="6.27659">
        <ele>235.6</ele>
        <time>2022-07-17T10:57:29Z</time>
      </trkpt>
      <trkpt lat="48.52371" lon="6.27661">
        <ele>235.5</ele>
        <time>2022-07-17T10:57:36Z</time>
      </trkpt>
      <trkpt lat="48.5238" lon="6.27665">
        <ele>235.4</ele>
        <time>2022-07-17T10:57:43Z</time>
      </trkpt>
      <trkpt lat="48.52389" lon="6.27667">
        <ele>235.3</ele>
        <time>2022-07-17T10:57:51Z</time>
      </trkpt>
      <trkpt lat="48.52399" lon="6.27667">
        <ele>235.2</ele>
        <time>2022-07-17T10:57:59Z</time>
      </trkpt>
      <trkpt lat="48.52408" lon="6.27666">
        <ele>235.2</ele>
        <time>2022-07-17T10:58:07Z</time>
      </trkpt>
      <trkpt lat="48.52418" lon="6.27666">
        <ele>235.2</ele>
        <time>2022-07-17T10:58:15Z</time>
      </trkpt>
      <trkpt lat="48.52427" lon="6.27664">
        <ele>235.2</ele>
        <time>2022-07-17T10:58:20Z</time>
      </trkpt>
      <trkpt lat="48.52437" lon="6.27663">
        <ele>235.2</ele>
        <time>2022-07-17T10:58:27Z</time>
      </trkpt>
      <trkpt lat="48.52446" lon="6.27661">
        <ele>235.2</ele>
        <time>2022-07-17T10:58:34Z</time>
      </trkpt>
      <trkpt lat="48.52456" lon="6.27656">
        <ele>235.2</ele>
        <time>2022-07-17T10:58:42Z</time>
      </trkpt>
      <trkpt lat="48.52465" lon="6.27651">
        <ele>235.2</ele>
        <time>2022-07-17T10:58:50Z</time>
      </trkpt>
      <trkpt lat="48.52473" lon="6.27646">
        <ele>235.2</ele>
        <time>2022-07-17T10:59:02Z</time>
      </trkpt>
      <trkpt lat="48.52482" lon="6.27641">
        <ele>235.2</ele>
        <time>2022-07-17T10:59:12Z</time>
      </trkpt>
      <trkpt lat="48.52489" lon="6.27631">
        <ele>235.2</ele>
        <time>2022-07-17T10:59:20Z</time>
      </trkpt>
      <trkpt lat="48.52497" lon="6.27625">
        <ele>235.1</ele>
        <time>2022-07-17T10:59:28Z</time>
      </trkpt>
      <trkpt lat="48.52506" lon="6.27621">
        <ele>235.1</ele>
        <time>2022-07-17T10:59:36Z</time>
      </trkpt>
      <trkpt lat="48.52515" lon="6.27614">
        <ele>235.1</ele>
        <time>2022-07-17T10:59:45Z</time>
      </trkpt>
      <trkpt lat="48.52524" lon="6.27607">
        <ele>235.1</ele>
        <time>2022-07-17T10:59:53Z</time>
      </trkpt>
      <trkpt lat="48.52533" lon="6.27599">
        <ele>235.1</ele>
        <time>2022-07-17T11:00:01Z</time>
      </trkpt>
      <trkpt lat="48.52541" lon="6.27591">
        <ele>235.1</ele>
        <time>2022-07-17T11:00:09Z</time>
      </trkpt>
      <trkpt lat="48.5255" lon="6.27585">
        <ele>235.1</ele>
        <time>2022-07-17T11:00:17Z</time>
      </trkpt>
      <trkpt lat="48.52558" lon="6.27578">
        <ele>235.2</ele>
        <time>2022-07-17T11:00:26Z</time>
      </trkpt>
      <trkpt lat="48.52564" lon="6.27574">
        <ele>235.2</ele>
        <time>2022-07-17T11:00:35Z</time>
      </trkpt>
      <trkpt lat="48.52564" lon="6.27574">
        <ele>235.2</ele>
        <time>2022-07-17T11:00:36Z</time>
      </trkpt>
      <trkpt lat="48.52563" lon="6.2756">
        <ele>235.3</ele>
        <time>2022-07-17T11:00:49Z</time>
      </trkpt>
      <trkpt lat="48.52559" lon="6.27548">
        <ele>235.4</ele>
        <time>2022-07-17T11:00:57Z</time>
      </trkpt>
      <trkpt lat="48.52555" lon="6.27535">
        <ele>235.5</ele>
        <time>2022-07-17T11:01:04Z</time>
      </trkpt>
      <trkpt lat="48.5255" lon="6.27523">
        <ele>235.5</ele>
        <time>2022-07-17T11:01:12Z</time>
      </trkpt>
      <trkpt lat="48.52545" lon="6.27511">
        <ele>235.6</ele>
        <time>2022-07-17T11:01:20Z</time>
      </trkpt>
      <trkpt lat="48.5254" lon="6.27499">
        <ele>235.7</ele>
        <time>2022-07-17T11:01:30Z</time>
      </trkpt>
      <trkpt lat="48.52534" lon="6.27487">
        <ele>235.8</ele>
        <time>2022-07-17T11:01:41Z</time>
      </trkpt>
      <trkpt lat="48.52529" lon="6.27475">
        <ele>235.9</ele>
        <time>2022-07-17T11:01:50Z</time>
      </trkpt>
      <trkpt lat="48.52531" lon="6.27461">
        <ele>235.9</ele>
        <time>2022-07-17T11:01:58Z</time>
      </trkpt>
      <trkpt lat="48.52537" lon="6.27449">
        <ele>236</ele>
        <time>2022-07-17T11:02:06Z</time>
      </trkpt>
      <trkpt lat="48.52544" lon="6.2744">
        <ele>236</ele>
        <time>2022-07-17T11:02:14Z</time>
      </trkpt>
      <trkpt lat="48.52551" lon="6.27429">
        <ele>236.1</ele>
        <time>2022-07-17T11:02:22Z</time>
      </trkpt>
      <trkpt lat="48.52558" lon="6.2742">
        <ele>236.1</ele>
        <time>2022-07-17T11:02:30Z</time>
      </trkpt>
      <trkpt lat="48.52565" lon="6.27412">
        <ele>236.2</ele>
        <time>2022-07-17T11:02:37Z</time>
      </trkpt>
      <trkpt lat="48.52572" lon="6.27401">
        <ele>236.3</ele>
        <time>2022-07-17T11:02:45Z</time>
      </trkpt>
      <trkpt lat="48.52579" lon="6.27392">
        <ele>236.3</ele>
        <time>2022-07-17T11:02:53Z</time>
      </trkpt>
      <trkpt lat="48.52587" lon="6.27384">
        <ele>236.4</ele>
        <time>2022-07-17T11:03:01Z</time>
      </trkpt>
      <trkpt lat="48.52594" lon="6.27376">
        <ele>236.4</ele>
        <time>2022-07-17T11:03:10Z</time>
      </trkpt>
      <trkpt lat="48.52601" lon="6.27367">
        <ele>236.4</ele>
        <time>2022-07-17T11:03:17Z</time>
      </trkpt>
      <trkpt lat="48.5261" lon="6.27359">
        <ele>236.5</ele>
        <time>2022-07-17T11:03:24Z</time>
      </trkpt>
      <trkpt lat="48.52617" lon="6.27351">
        <ele>236.5</ele>
        <time>2022-07-17T11:03:31Z</time>
      </trkpt>
      <trkpt lat="48.52625" lon="6.27343">
        <ele>236.5</ele>
        <time>2022-07-17T11:03:38Z</time>
      </trkpt>
      <trkpt lat="48.52633" lon="6.27337">
        <ele>236.6</ele>
        <time>2022-07-17T11:03:45Z</time>
      </trkpt>
      <trkpt lat="48.52641" lon="6.27328">
        <ele>236.6</ele>
        <time>2022-07-17T11:03:53Z</time>
      </trkpt>
      <trkpt lat="48.52648" lon="6.2732">
        <ele>236.6</ele>
        <time>2022-07-17T11:04:00Z</time>
      </trkpt>
      <trkpt lat="48.52656" lon="6.27312">
        <ele>236.7</ele>
        <time>2022-07-17T11:04:07Z</time>
      </trkpt>
      <trkpt lat="48.52663" lon="6.27303">
        <ele>236.7</ele>
        <time>2022-07-17T11:04:14Z</time>
      </trkpt>
      <trkpt lat="48.52671" lon="6.27296">
        <ele>236.9</ele>
        <time>2022-07-17T11:04:21Z</time>
      </trkpt>
      <trkpt lat="48.52678" lon="6.27288">
        <ele>237</ele>
        <time>2022-07-17T11:04:28Z</time>
      </trkpt>
      <trkpt lat="48.52686" lon="6.27279">
        <ele>237.1</ele>
        <time>2022-07-17T11:04:36Z</time>
      </trkpt>
      <trkpt lat="48.52694" lon="6.27271">
        <ele>237.1</ele>
        <time>2022-07-17T11:04:44Z</time>
      </trkpt>
      <trkpt lat="48.52703" lon="6.27264">
        <ele>237.1</ele>
        <time>2022-07-17T11:04:52Z</time>
      </trkpt>
      <trkpt lat="48.52711" lon="6.27256">
        <ele>237.2</ele>
        <time>2022-07-17T11:05:00Z</time>
      </trkpt>
      <trkpt lat="48.52719" lon="6.27246">
        <ele>237.3</ele>
        <time>2022-07-17T11:05:07Z</time>
      </trkpt>
      <trkpt lat="48.52727" lon="6.27239">
        <ele>237.4</ele>
        <time>2022-07-17T11:05:14Z</time>
      </trkpt>
      <trkpt lat="48.52735" lon="6.27232">
        <ele>237.7</ele>
        <time>2022-07-17T11:05:21Z</time>
      </trkpt>
      <trkpt lat="48.52746" lon="6.27232">
        <ele>238</ele>
        <time>2022-07-17T11:05:28Z</time>
      </trkpt>
      <trkpt lat="48.52755" lon="6.27233">
        <ele>238</ele>
        <time>2022-07-17T11:05:33Z</time>
      </trkpt>
      <trkpt lat="48.52763" lon="6.27239">
        <ele>238</ele>
        <time>2022-07-17T11:05:40Z</time>
      </trkpt>
      <trkpt lat="48.5277" lon="6.27249">
        <ele>238</ele>
        <time>2022-07-17T11:05:46Z</time>
      </trkpt>
      <trkpt lat="48.52777" lon="6.27258">
        <ele>238</ele>
        <time>2022-07-17T11:05:54Z</time>
      </trkpt>
      <trkpt lat="48.52785" lon="6.27267">
        <ele>238</ele>
        <time>2022-07-17T11:06:01Z</time>
      </trkpt>
      <trkpt lat="48.52793" lon="6.27276">
        <ele>238</ele>
        <time>2022-07-17T11:06:09Z</time>
      </trkpt>
      <trkpt lat="48.52801" lon="6.27284">
        <ele>238.1</ele>
        <time>2022-07-17T11:06:15Z</time>
      </trkpt>
      <trkpt lat="48.52808" lon="6.27293">
        <ele>238.1</ele>
        <time>2022-07-17T11:06:21Z</time>
      </trkpt>
      <trkpt lat="48.52816" lon="6.27302">
        <ele>238.2</ele>
        <time>2022-07-17T11:06:29Z</time>
      </trkpt>
      <trkpt lat="48.52824" lon="6.2731">
        <ele>238.3</ele>
        <time>2022-07-17T11:06:37Z</time>
      </trkpt>
      <trkpt lat="48.52835" lon="6.2732">
        <ele>238.3</ele>
        <time>2022-07-17T11:06:45Z</time>
      </trkpt>
      <trkpt lat="48.52839" lon="6.27322">
        <ele>238.3</ele>
        <time>2022-07-17T11:06:52Z</time>
      </trkpt>
      <trkpt lat="48.52843" lon="6.27323">
        <ele>238.4</ele>
        <time>2022-07-17T11:06:58Z</time>
      </trkpt>
      <trkpt lat="48.52846" lon="6.27325">
        <ele>238.4</ele>
        <time>2022-07-17T11:07:06Z</time>
      </trkpt>
      <trkpt lat="48.5285" lon="6.27326">
        <ele>238.4</ele>
        <time>2022-07-17T11:07:13Z</time>
      </trkpt>
      <trkpt lat="48.52853" lon="6.27328">
        <ele>238.4</ele>
        <time>2022-07-17T11:07:25Z</time>
      </trkpt>
      <trkpt lat="48.52857" lon="6.27329">
        <ele>238.5</ele>
        <time>2022-07-17T11:07:32Z</time>
      </trkpt>
      <trkpt lat="48.5286" lon="6.27331">
        <ele>238.5</ele>
        <time>2022-07-17T11:07:33Z</time>
      </trkpt>
      <trkpt lat="48.52864" lon="6.27332">
        <ele>238.5</ele>
        <time>2022-07-17T11:07:34Z</time>
      </trkpt>
      <trkpt lat="48.52867" lon="6.27334">
        <ele>238.5</ele>
        <time>2022-07-17T11:07:35Z</time>
      </trkpt>
      <trkpt lat="48.52871" lon="6.27335">
        <ele>238.5</ele>
        <time>2022-07-17T11:07:40Z</time>
      </trkpt>
      <trkpt lat="48.52875" lon="6.27337">
        <ele>238.6</ele>
        <time>2022-07-17T11:07:41Z</time>
      </trkpt>
      <trkpt lat="48.52878" lon="6.27339">
        <ele>238.6</ele>
        <time>2022-07-17T11:07:54Z</time>
      </trkpt>
      <trkpt lat="48.52882" lon="6.2734">
        <ele>238.6</ele>
        <time>2022-07-17T11:07:58Z</time>
      </trkpt>
      <trkpt lat="48.52885" lon="6.27342">
        <ele>238.6</ele>
        <time>2022-07-17T11:08:09Z</time>
      </trkpt>
      <trkpt lat="48.52889" lon="6.27343">
        <ele>238.7</ele>
        <time>2022-07-17T11:08:09Z</time>
      </trkpt>
    </trkseg>
  </trk>
</gpx>